Observation data for Estelline on 07/02/2020      Previous  Date  Next       Current Mesonet Observations  Soil Data  Daily Summary Page  Observations in Plain Language
KES1 020500Z 19009KT 31/17 A2988 RMK A01 T03070172  RH  044%=      5-min Rain = 0
KES1 020501Z 20011G18KT 31/17 A2987 RMK A01 T03070171  RH  044%=      5-min Rain = 0
KES1 020502Z 19010KT 31/17 A2988 RMK A01 T03070171  RH  044%=      5-min Rain = 0
KES1 020503Z 18012KT 31/17 A2988 RMK A01 T03070171  RH  044%=      5-min Rain = 0
KES1 020504Z 19011KT 31/17 A2988 RMK A01 T03070171  RH  044%=      5-min Rain = 0
KES1 020505Z 20011KT 31/17 A2988 RMK A01 T03060170  RH  044%=      5-min Rain = 0
KES1 020506Z 19012KT 31/17 A2988 RMK A01 T03060170  RH  044%=      5-min Rain = 0
KES1 020507Z 20012KT 31/17 A2988 RMK A01 T03060170  RH  044%=      5-min Rain = 0
KES1 020508Z 20013KT 31/17 A2988 RMK A01 T03060170  RH  044%=      5-min Rain = 0
KES1 020509Z 19011KT 31/17 A2988 RMK A01 T03060170  RH  044%=      5-min Rain = 0
KES1 020510Z 19011G16KT 31/17 A2988 RMK A01 T03050169  RH  044%=      5-min Rain = 0
KES1 020511Z 20012KT 31/17 A2988 RMK A01 T03050169  RH  044%=      5-min Rain = 0
KES1 020512Z 19012KT 31/17 A2988 RMK A01 T03050169  RH  044%=      5-min Rain = 0
KES1 020513Z 20012KT 31/17 A2988 RMK A01 T03050169  RH  044%=      5-min Rain = 0
KES1 020514Z 19009KT 31/17 A2988 RMK A01 T03050169  RH  044%=      5-min Rain = 0
KES1 020515Z 19009KT 30/17 A2988 RMK A01 T03040169  RH  044%=      5-min Rain = 0
KES1 020516Z 19011KT 30/17 A2988 RMK A01 T03040169  RH  044%=      5-min Rain = 0
KES1 020517Z 19010KT 30/17 A2988 RMK A01 T03030168  RH  044%=      5-min Rain = 0
KES1 020518Z 19011KT 30/17 A2988 RMK A01 T03040169  RH  044%=      5-min Rain = 0
KES1 020519Z 19010KT 30/17 A2988 RMK A01 T03030168  RH  044%=      5-min Rain = 0
KES1 020520Z 19011KT 30/17 A2988 RMK A01 T03030168  RH  044%=      5-min Rain = 0
KES1 020521Z 19011KT 30/17 A2988 RMK A01 T03030168  RH  044%=      5-min Rain = 0
KES1 020522Z 19009KT 30/17 A2988 RMK A01 T03030168  RH  044%=      5-min Rain = 0
KES1 020523Z 20010KT 30/17 A2988 RMK A01 T03020168  RH  044%=      5-min Rain = 0
KES1 020524Z 19011KT 30/17 A2988 RMK A01 T03020168  RH  044%=      5-min Rain = 0
KES1 020525Z 20011KT 30/17 A2988 RMK A01 T03020168  RH  044%=      5-min Rain = 0
KES1 020526Z 19011KT 30/17 A2988 RMK A01 T03020167  RH  044%=      5-min Rain = 0
KES1 020527Z 20011KT 30/17 A2988 RMK A01 T03020168  RH  044%=      5-min Rain = 0
KES1 020528Z 20011KT 30/17 A2988 RMK A01 T03010167  RH  045%=      5-min Rain = 0
KES1 020529Z 19009KT 30/17 A2988 RMK A01 T03010168  RH  045%=      5-min Rain = 0
KES1 020530Z 20010KT 30/17 A2988 RMK A01 T03010167  RH  045%=      5-min Rain = 0
KES1 020531Z 19011KT 30/17 A2988 RMK A01 T03000167  RH  045%=      5-min Rain = 0
KES1 020532Z 19012KT 30/17 A2988 RMK A01 T03000167  RH  045%=      5-min Rain = 0
KES1 020533Z 20010KT 30/17 A2988 RMK A01 T03000167  RH  045%=      5-min Rain = 0
KES1 020534Z 20009KT 30/17 A2988 RMK A01 T03000167  RH  045%=      5-min Rain = 0
KES1 020535Z 20010KT 30/17 A2988 RMK A01 T02990167  RH  045%=      5-min Rain = 0
KES1 020536Z 20011KT 30/17 A2988 RMK A01 T02990167  RH  045%=      5-min Rain = 0
KES1 020537Z 20012KT 30/17 A2988 RMK A01 T02990167  RH  045%=      5-min Rain = 0
KES1 020538Z 20010G15KT 30/17 A2988 RMK A01 T02990167  RH  045%=      5-min Rain = 0
KES1 020539Z 20010KT 30/17 A2988 RMK A01 T02990167  RH  045%=      5-min Rain = 0
KES1 020540Z 21009KT 30/17 A2988 RMK A01 T02990167  RH  045%=      5-min Rain = 0
KES1 020541Z 21009KT 30/17 A2988 RMK A01 T02980167  RH  045%=      5-min Rain = 0
KES1 020542Z 20010KT 30/17 A2988 RMK A01 T02980167  RH  045%=      5-min Rain = 0
KES1 020543Z 20010KT 30/17 A2988 RMK A01 T02980167  RH  045%=      5-min Rain = 0
KES1 020544Z 20010G15KT 30/17 A2988 RMK A01 T02980167  RH  045%=      5-min Rain = 0
KES1 020545Z 20010KT 30/17 A2988 RMK A01 T02980167  RH  045%=      5-min Rain = 0
KES1 020546Z 21009KT 30/17 A2988 RMK A01 T02980167  RH  045%=      5-min Rain = 0
KES1 020547Z 21011KT 30/17 A2988 RMK A01 T02970166  RH  045%=      5-min Rain = 0
KES1 020548Z 20010KT 30/17 A2988 RMK A01 T02970166  RH  045%=      5-min Rain = 0
KES1 020549Z 20010KT 30/17 A2988 RMK A01 T02970166  RH  045%=      5-min Rain = 0
KES1 020550Z 20010KT 30/17 A2988 RMK A01 T02970166  RH  045%=      5-min Rain = 0
KES1 020551Z 21010KT 30/17 A2988 RMK A01 T02970166  RH  045%=      5-min Rain = 0
KES1 020552Z 21011KT 30/17 A2988 RMK A01 T02970165  RH  045%=      5-min Rain = 0
KES1 020553Z 20011KT 30/17 A2988 RMK A01 T02970165  RH  045%=      5-min Rain = 0
KES1 020554Z 21011KT 30/17 A2988 RMK A01 T02970165  RH  045%=      5-min Rain = 0
KES1 020555Z 21011KT 30/17 A2988 RMK A01 T02970165  RH  045%=      5-min Rain = 0
KES1 020556Z 21011KT 30/17 A2988 RMK A01 T02970166  RH  045%=      5-min Rain = 0
KES1 020557Z 21011KT 30/17 A2988 RMK A01 T02970166  RH  045%=      5-min Rain = 0
KES1 020558Z 21013KT 30/17 A2988 RMK A01 T02970166  RH  045%=      5-min Rain = 0
KES1 020559Z 21010KT 30/17 A2988 RMK A01 T02970166  RH  045%=      5-min Rain = 0
KES1 020600Z 22010KT 30/17 A2989 RMK A01 T02970165  RH  045%=      5-min Rain = 0
KES1 020601Z 21011KT 30/17 A2989 RMK A01 T02960165  RH  045%=      5-min Rain = 0
KES1 020602Z 22013KT 30/16 A2989 RMK A01 T02960164  RH  045%=      5-min Rain = 0
KES1 020603Z 22012KT 30/16 A2989 RMK A01 T02960163  RH  045%=      5-min Rain = 0
KES1 020604Z 21011KT 30/16 A2989 RMK A01 T02970163  RH  044%=      5-min Rain = 0
KES1 020605Z 21014KT 30/16 A2989 RMK A01 T02970163  RH  044%=      5-min Rain = 0
KES1 020606Z 21011G16KT 30/16 A2989 RMK A01 T02970163  RH  044%=      5-min Rain = 0
KES1 020607Z 21011KT 30/16 A2989 RMK A01 T02970162  RH  044%=      5-min Rain = 0
KES1 020608Z 21011KT 30/16 A2989 RMK A01 T02970162  RH  044%=      5-min Rain = 0
KES1 020609Z 21011KT 30/16 A2989 RMK A01 T02970163  RH  044%=      5-min Rain = 0
KES1 020610Z 21009KT 30/16 A2989 RMK A01 T02960163  RH  044%=      5-min Rain = 0
KES1 020611Z 21010KT 30/16 A2989 RMK A01 T02960162  RH  044%=      5-min Rain = 0
KES1 020612Z 21009KT 30/16 A2989 RMK A01 T02960163  RH  045%=      5-min Rain = 0
KES1 020613Z 22009KT 30/16 A2989 RMK A01 T02950162  RH  045%=      5-min Rain = 0
KES1 020614Z 21010KT 30/16 A2989 RMK A01 T02950162  RH  045%=      5-min Rain = 0
KES1 020615Z 21009KT 30/16 A2989 RMK A01 T02950162  RH  045%=      5-min Rain = 0
KES1 020616Z 22009KT 30/16 A2989 RMK A01 T02950162  RH  045%=      5-min Rain = 0
KES1 020617Z 21008KT 30/16 A2989 RMK A01 T02950162  RH  045%=      5-min Rain = 0
KES1 020618Z 21008KT 29/16 A2989 RMK A01 T02940162  RH  045%=      5-min Rain = 0
KES1 020619Z 21008KT 29/16 A2989 RMK A01 T02940162  RH  045%=      5-min Rain = 0
KES1 020620Z 21008KT 29/16 A2989 RMK A01 T02940163  RH  045%=      5-min Rain = 0
KES1 020621Z 21006KT 29/16 A2989 RMK A01 T02930161  RH  045%=      5-min Rain = 0
KES1 020622Z 21009KT 29/16 A299 RMK A01 T02940162  RH  045%=      5-min Rain = 0
KES1 020623Z 21008KT 29/16 A299 RMK A01 T02930161  RH  045%=      5-min Rain = 0
KES1 020624Z 20006KT 29/16 A299 RMK A01 T02940160  RH  045%=      5-min Rain = 0
KES1 020625Z 21005KT 29/16 A299 RMK A01 T02940160  RH  044%=      5-min Rain = 0
KES1 020626Z 20005KT 29/16 A299 RMK A01 T02940161  RH  045%=      5-min Rain = 0
KES1 020627Z 21003KT 29/16 A299 RMK A01 T02940161  RH  045%=      5-min Rain = 0
KES1 020628Z 21004KT 29/16 A299 RMK A01 T02940161  RH  045%=      5-min Rain = 0
KES1 020629Z 20002KT 29/16 A299 RMK A01 T02930160  RH  045%=      5-min Rain = 0
KES1 020630Z 22001KT 29/16 A299 RMK A01 T02930160  RH  045%=      5-min Rain = 0
KES1 020631Z 24002KT 29/16 A299 RMK A01 T02930160  RH  045%=      5-min Rain = 0
KES1 020632Z 24001KT 29/16 A299 RMK A01 T02920160  RH  045%=      5-min Rain = 0
KES1 020633Z 22001KT 29/16 A299 RMK A01 T02920160  RH  045%=      5-min Rain = 0
KES1 020634Z 19001KT 29/16 A299 RMK A01 T02910159  RH  045%=      5-min Rain = 0
KES1 020635Z 15000KT 29/16 A299 RMK A01 T02910159  RH  045%=      5-min Rain = 0
KES1 020636Z 17000KT 29/16 A299 RMK A01 T02910160  RH  045%=      5-min Rain = 0
KES1 020637Z 20002KT 29/16 A299 RMK A01 T02900160  RH  045%=      5-min Rain = 0
KES1 020638Z 26000KT 29/16 A299 RMK A01 T02900160  RH  045%=      5-min Rain = 0
KES1 020639Z 29001KT 29/16 A299 RMK A01 T02900159  RH  045%=      5-min Rain = 0
KES1 020640Z 33000KT 29/16 A299 RMK A01 T02900159  RH  045%=      5-min Rain = 0
KES1 020641Z 00000KT 29/16 A299 RMK A01 T02890159  RH  045%=      5-min Rain = 0
KES1 020642Z 00000KT 29/16 A299 RMK A01 T02890160  RH  045%=      5-min Rain = 0
KES1 020643Z 00000KT 29/16 A299 RMK A01 T02890160  RH  046%=      5-min Rain = 0
KES1 020644Z 08001KT 29/16 A299 RMK A01 T02880159  RH  046%=      5-min Rain = 0
KES1 020645Z 10000KT 29/16 A299 RMK A01 T02880159  RH  046%=      5-min Rain = 0
KES1 020646Z 12001KT 29/16 A299 RMK A01 T02880159  RH  046%=      5-min Rain = 0
KES1 020647Z 13002KT 29/16 A2991 RMK A01 T02870160  RH  046%=      5-min Rain = 0
KES1 020648Z 13002KT 29/16 A2991 RMK A01 T02860160  RH  046%=      5-min Rain = 0
KES1 020649Z 14003KT 29/16 A2991 RMK A01 T02850159  RH  046%=      5-min Rain = 0
KES1 020650Z 15002KT 29/16 A2991 RMK A01 T02850160  RH  047%=      5-min Rain = 0
KES1 020651Z 16003KT 28/16 A299 RMK A01 T02840160  RH  047%=      5-min Rain = 0
KES1 020652Z 15004KT 28/16 A299 RMK A01 T02840160  RH  047%=      5-min Rain = 0
KES1 020653Z 15003KT 28/16 A299 RMK A01 T02830160  RH  047%=      5-min Rain = 0
KES1 020654Z 15004KT 28/16 A299 RMK A01 T02820160  RH  048%=      5-min Rain = 0
KES1 020655Z 15004KT 28/16 A299 RMK A01 T02810161  RH  048%=      5-min Rain = 0
KES1 020656Z 15005KT 28/16 A299 RMK A01 T02800161  RH  048%=      5-min Rain = 0
KES1 020657Z 15005KT 28/16 A299 RMK A01 T02790161  RH  049%=      5-min Rain = 0
KES1 020658Z 16005KT 28/16 A299 RMK A01 T02770161  RH  049%=      5-min Rain = 0
KES1 020659Z 16005KT 28/16 A299 RMK A01 T02760161  RH  049%=      5-min Rain = 0
KES1 020700Z 15006KT 28/16 A299 RMK A01 T02750161  RH  050%=      5-min Rain = 0
KES1 020701Z 15006KT 27/16 A299 RMK A01 T02740161  RH  050%=      5-min Rain = 0
KES1 020702Z 16006KT 27/16 A299 RMK A01 T02730162  RH  050%=      5-min Rain = 0
KES1 020703Z 16006KT 27/16 A299 RMK A01 T02720161  RH  051%=      5-min Rain = 0
KES1 020704Z 16006KT 27/16 A299 RMK A01 T02720161  RH  051%=      5-min Rain = 0
KES1 020705Z 16006KT 27/16 A299 RMK A01 T02720161  RH  051%=      5-min Rain = 0
KES1 020706Z 16006KT 27/16 A299 RMK A01 T02720160  RH  050%=      5-min Rain = 0
KES1 020707Z 16006KT 27/16 A299 RMK A01 T02730160  RH  050%=      5-min Rain = 0
KES1 020708Z 16006KT 27/16 A299 RMK A01 T02740159  RH  050%=      5-min Rain = 0
KES1 020709Z 16007KT 27/16 A299 RMK A01 T02740159  RH  050%=      5-min Rain = 0
KES1 020710Z 16007KT 28/16 A299 RMK A01 T02750160  RH  049%=      5-min Rain = 0
KES1 020711Z 16007KT 28/16 A299 RMK A01 T02750159  RH  049%=      5-min Rain = 0
KES1 020712Z 16006KT 28/16 A299 RMK A01 T02750159  RH  049%=      5-min Rain = 0
KES1 020713Z 16006KT 28/16 A299 RMK A01 T02750159  RH  049%=      5-min Rain = 0
KES1 020714Z 16006KT 28/16 A299 RMK A01 T02750159  RH  049%=      5-min Rain = 0
KES1 020715Z 16006KT 28/16 A299 RMK A01 T02750159  RH  049%=      5-min Rain = 0
KES1 020716Z 16007KT 28/16 A299 RMK A01 T02750159  RH  049%=      5-min Rain = 0
KES1 020717Z 16006KT 28/16 A299 RMK A01 T02750159  RH  049%=      5-min Rain = 0
KES1 020718Z 16006KT 28/16 A299 RMK A01 T02750160  RH  049%=      5-min Rain = 0
KES1 020719Z 15007KT 28/16 A299 RMK A01 T02750160  RH  049%=      5-min Rain = 0
KES1 020720Z 16005KT 28/16 A299 RMK A01 T02750160  RH  049%=      5-min Rain = 0
KES1 020721Z 16006KT 28/16 A299 RMK A01 T02750160  RH  050%=      5-min Rain = 0
KES1 020722Z 15006KT 27/16 A299 RMK A01 T02740160  RH  050%=      5-min Rain = 0
KES1 020723Z 15006KT 27/16 A299 RMK A01 T02740160  RH  050%=      5-min Rain = 0
KES1 020724Z 15006KT 27/16 A299 RMK A01 T02740160  RH  050%=      5-min Rain = 0
KES1 020725Z 14006KT 27/16 A299 RMK A01 T02730160  RH  050%=      5-min Rain = 0
KES1 020726Z 14005KT 27/16 A299 RMK A01 T02720161  RH  050%=      5-min Rain = 0
KES1 020727Z 14006KT 27/16 A299 RMK A01 T02720161  RH  051%=      5-min Rain = 0
KES1 020728Z 14005KT 27/16 A299 RMK A01 T02720161  RH  051%=      5-min Rain = 0
KES1 020729Z 14005KT 27/16 A299 RMK A01 T02720162  RH  051%=      5-min Rain = 0
KES1 020730Z 13004KT 27/16 A299 RMK A01 T02720162  RH  051%=      5-min Rain = 0
KES1 020731Z 13005KT 27/16 A299 RMK A01 T02720162  RH  051%=      5-min Rain = 0
KES1 020732Z 14004KT 27/16 A299 RMK A01 T02720162  RH  051%=      5-min Rain = 0
KES1 020733Z 13004KT 27/16 A2991 RMK A01 T02720162  RH  051%=      5-min Rain = 0
KES1 020734Z 13004KT 27/16 A2991 RMK A01 T02710162  RH  051%=      5-min Rain = 0
KES1 020735Z 12003KT 27/16 A2991 RMK A01 T02710162  RH  051%=      5-min Rain = 0
KES1 020736Z 12003KT 27/16 A2991 RMK A01 T02710162  RH  051%=      5-min Rain = 0
KES1 020737Z 10002KT 27/16 A2991 RMK A01 T02700162  RH  051%=      5-min Rain = 0
KES1 020738Z 10003KT 27/16 A2991 RMK A01 T02700162  RH  052%=      5-min Rain = 0
KES1 020739Z 09003KT 27/16 A2991 RMK A01 T02690162  RH  052%=      5-min Rain = 0
KES1 020740Z 10003KT 27/16 A2991 RMK A01 T02690162  RH  052%=      5-min Rain = 0
KES1 020741Z 11004KT 27/16 A2991 RMK A01 T02680163  RH  052%=      5-min Rain = 0
KES1 020742Z 10004KT 27/16 A2991 RMK A01 T02670163  RH  053%=      5-min Rain = 0
KES1 020743Z 10004KT 27/16 A2991 RMK A01 T02670163  RH  053%=      5-min Rain = 0
KES1 020744Z 09004KT 27/16 A2991 RMK A01 T02660163  RH  053%=      5-min Rain = 0
KES1 020745Z 09004KT 27/16 A2991 RMK A01 T02650163  RH  054%=      5-min Rain = 0
KES1 020746Z 10004KT 26/16 A2991 RMK A01 T02640163  RH  054%=      5-min Rain = 0
KES1 020747Z 10004KT 26/16 A2991 RMK A01 T02630163  RH  054%=      5-min Rain = 0
KES1 020748Z 10004KT 26/16 A2991 RMK A01 T02630164  RH  054%=      5-min Rain = 0
KES1 020749Z 10003KT 26/16 A2991 RMK A01 T02620164  RH  055%=      5-min Rain = 0
KES1 020750Z 10003KT 26/16 A2991 RMK A01 T02610163  RH  055%=      5-min Rain = 0
KES1 020751Z 10003KT 26/16 A2991 RMK A01 T02610163  RH  055%=      5-min Rain = 0
KES1 020752Z 11003KT 26/16 A299 RMK A01 T02610164  RH  055%=      5-min Rain = 0
KES1 020753Z 12003KT 26/16 A299 RMK A01 T02610163  RH  055%=      5-min Rain = 0
KES1 020754Z 12003KT 26/16 A299 RMK A01 T02620164  RH  055%=      5-min Rain = 0
KES1 020755Z 13003KT 26/16 A299 RMK A01 T02610163  RH  055%=      5-min Rain = 0
KES1 020756Z 14003KT 26/16 A299 RMK A01 T02620164  RH  055%=      5-min Rain = 0
KES1 020757Z 14004KT 26/16 A299 RMK A01 T02620164  RH  055%=      5-min Rain = 0
KES1 020758Z 14004KT 26/16 A299 RMK A01 T02620164  RH  055%=      5-min Rain = 0
KES1 020759Z 14004KT 26/16 A299 RMK A01 T02610164  RH  055%=      5-min Rain = 0
KES1 020800Z 14004KT 26/16 A299 RMK A01 T02610164  RH  055%=      5-min Rain = 0
KES1 020801Z 14005KT 26/17 A299 RMK A01 T02600165  RH  055%=      5-min Rain = 0
KES1 020802Z 14005KT 26/16 A299 RMK A01 T02590164  RH  056%=      5-min Rain = 0
KES1 020803Z 14005KT 26/16 A299 RMK A01 T02590164  RH  056%=      5-min Rain = 0
KES1 020804Z 14005KT 26/17 A299 RMK A01 T02580165  RH  056%=      5-min Rain = 0
KES1 020805Z 14005KT 26/16 A299 RMK A01 T02580164  RH  056%=      5-min Rain = 0
KES1 020806Z 14005KT 26/16 A299 RMK A01 T02580164  RH  056%=      5-min Rain = 0
KES1 020807Z 14005KT 26/16 A299 RMK A01 T02580164  RH  056%=      5-min Rain = 0
KES1 020808Z 14005KT 26/16 A299 RMK A01 T02580164  RH  056%=      5-min Rain = 0
KES1 020809Z 15005KT 26/17 A299 RMK A01 T02580165  RH  056%=      5-min Rain = 0
KES1 020810Z 15005KT 26/17 A299 RMK A01 T02580165  RH  056%=      5-min Rain = 0
KES1 020811Z 15005KT 26/17 A299 RMK A01 T02580165  RH  057%=      5-min Rain = 0
KES1 020812Z 15005KT 26/17 A299 RMK A01 T02580165  RH  057%=      5-min Rain = 0
KES1 020813Z 15005KT 26/17 A299 RMK A01 T02570165  RH  057%=      5-min Rain = 0
KES1 020814Z 15006KT 26/17 A299 RMK A01 T02570165  RH  057%=      5-min Rain = 0
KES1 020815Z 15006KT 26/17 A299 RMK A01 T02560165  RH  057%=      5-min Rain = 0
KES1 020816Z 15006KT 26/17 A299 RMK A01 T02550165  RH  057%=      5-min Rain = 0
KES1 020817Z 15006KT 26/17 A299 RMK A01 T02550165  RH  058%=      5-min Rain = 0
KES1 020818Z 15005KT 26/17 A2989 RMK A01 T02550165  RH  058%=      5-min Rain = 0
KES1 020819Z 14006KT 25/17 A2989 RMK A01 T02540165  RH  058%=      5-min Rain = 0
KES1 020820Z 15006KT 26/17 A299 RMK A01 T02550165  RH  057%=      5-min Rain = 0
KES1 020821Z 14006KT 25/16 A299 RMK A01 T02540164  RH  057%=      5-min Rain = 0
KES1 020822Z 15007KT 26/16 A299 RMK A01 T02550164  RH  057%=      5-min Rain = 0
KES1 020823Z 15006KT 26/17 A299 RMK A01 T02550165  RH  057%=      5-min Rain = 0
KES1 020824Z 15006KT 26/17 A299 RMK A01 T02560165  RH  057%=      5-min Rain = 0
KES1 020825Z 15006KT 26/17 A299 RMK A01 T02550165  RH  057%=      5-min Rain = 0
KES1 020826Z 15006KT 26/17 A299 RMK A01 T02550165  RH  057%=      5-min Rain = 0
KES1 020827Z 15006KT 26/17 A2989 RMK A01 T02550165  RH  057%=      5-min Rain = 0
KES1 020828Z 15006KT 26/17 A2989 RMK A01 T02550165  RH  057%=      5-min Rain = 0
KES1 020829Z 15006KT 26/17 A2989 RMK A01 T02550165  RH  057%=      5-min Rain = 0
KES1 020830Z 15006KT 26/17 A2989 RMK A01 T02550165  RH  057%=      5-min Rain = 0
KES1 020831Z 15006KT 26/17 A2989 RMK A01 T02550165  RH  057%=      5-min Rain = 0
KES1 020832Z 14006KT 26/17 A2989 RMK A01 T02550166  RH  058%=      5-min Rain = 0
KES1 020833Z 14006KT 26/17 A2989 RMK A01 T02550166  RH  058%=      5-min Rain = 0
KES1 020834Z 14006KT 26/17 A2989 RMK A01 T02550165  RH  058%=      5-min Rain = 0
KES1 020835Z 13006KT 25/17 A2989 RMK A01 T02540166  RH  058%=      5-min Rain = 0
KES1 020836Z 13006KT 25/17 A2989 RMK A01 T02540166  RH  058%=      5-min Rain = 0
KES1 020837Z 13006KT 26/17 A2989 RMK A01 T02550166  RH  058%=      5-min Rain = 0
KES1 020838Z 13005KT 26/17 A2989 RMK A01 T02550166  RH  058%=      5-min Rain = 0
KES1 020839Z 13006KT 26/17 A2989 RMK A01 T02550166  RH  058%=      5-min Rain = 0
KES1 020840Z 13006KT 26/17 A2989 RMK A01 T02550167  RH  058%=      5-min Rain = 0
KES1 020841Z 13007KT 25/17 A2989 RMK A01 T02540167  RH  058%=      5-min Rain = 0
KES1 020842Z 13006KT 25/17 A299 RMK A01 T02540167  RH  059%=      5-min Rain = 0
KES1 020843Z 13006KT 25/17 A299 RMK A01 T02540167  RH  059%=      5-min Rain = 0
KES1 020844Z 13006KT 25/17 A299 RMK A01 T02530168  RH  059%=      5-min Rain = 0
KES1 020845Z 13006KT 25/17 A299 RMK A01 T02520167  RH  059%=      5-min Rain = 0
KES1 020846Z 13007KT 25/17 A299 RMK A01 T02520167  RH  059%=      5-min Rain = 0
KES1 020847Z 13006KT 25/17 A299 RMK A01 T02520168  RH  059%=      5-min Rain = 0
KES1 020848Z 13006KT 25/17 A299 RMK A01 T02520168  RH  059%=      5-min Rain = 0
KES1 020849Z 13006KT 25/17 A299 RMK A01 T02520168  RH  059%=      5-min Rain = 0
KES1 020850Z 13006KT 25/17 A299 RMK A01 T02520168  RH  060%=      5-min Rain = 0
KES1 020851Z 14006KT 25/17 A299 RMK A01 T02520168  RH  060%=      5-min Rain = 0
KES1 020852Z 14006KT 25/17 A299 RMK A01 T02510168  RH  060%=      5-min Rain = 0
KES1 020853Z 13006KT 25/17 A2991 RMK A01 T02510168  RH  060%=      5-min Rain = 0
KES1 020854Z 14006KT 25/17 A2991 RMK A01 T02510168  RH  060%=      5-min Rain = 0
KES1 020855Z 14006KT 25/17 A299 RMK A01 T02500168  RH  060%=      5-min Rain = 0
KES1 020856Z 14006KT 25/17 A299 RMK A01 T02500168  RH  060%=      5-min Rain = 0
KES1 020857Z 14006KT 25/17 A299 RMK A01 T02490168  RH  061%=      5-min Rain = 0
KES1 020858Z 14006KT 25/17 A299 RMK A01 T02480168  RH  061%=      5-min Rain = 0
KES1 020859Z 14006KT 25/17 A299 RMK A01 T02480168  RH  061%=      5-min Rain = 0
KES1 020900Z 14006KT 25/17 A299 RMK A01 T02480168  RH  061%=      5-min Rain = 0
KES1 020901Z 14006KT 25/17 A299 RMK A01 T02470168  RH  061%=      5-min Rain = 0
KES1 020902Z 14007KT 25/17 A299 RMK A01 T02470168  RH  061%=      5-min Rain = 0
KES1 020903Z 14006KT 25/17 A299 RMK A01 T02460168  RH  062%=      5-min Rain = 0
KES1 020904Z 14007KT 25/17 A299 RMK A01 T02450168  RH  062%=      5-min Rain = 0
KES1 020905Z 14006KT 25/17 A299 RMK A01 T02450167  RH  062%=      5-min Rain = 0
KES1 020906Z 15006KT 25/17 A299 RMK A01 T02450167  RH  062%=      5-min Rain = 0
KES1 020907Z 14007KT 25/17 A299 RMK A01 T02450167  RH  062%=      5-min Rain = 0
KES1 020908Z 15006KT 24/17 A299 RMK A01 T02440167  RH  062%=      5-min Rain = 0
KES1 020909Z 15006KT 24/17 A299 RMK A01 T02430167  RH  062%=      5-min Rain = 0
KES1 020910Z 15007KT 24/17 A299 RMK A01 T02430167  RH  062%=      5-min Rain = 0
KES1 020911Z 14007KT 24/17 A299 RMK A01 T02430166  RH  062%=      5-min Rain = 0
KES1 020912Z 15007KT 24/17 A299 RMK A01 T02430167  RH  063%=      5-min Rain = 0
KES1 020913Z 14007KT 24/17 A299 RMK A01 T02430166  RH  062%=      5-min Rain = 0
KES1 020914Z 14007KT 24/17 A299 RMK A01 T02430166  RH  062%=      5-min Rain = 0
KES1 020915Z 15006KT 24/17 A299 RMK A01 T02430166  RH  062%=      5-min Rain = 0
KES1 020916Z 15007KT 24/17 A299 RMK A01 T02420166  RH  062%=      5-min Rain = 0
KES1 020917Z 15007KT 24/17 A299 RMK A01 T02420166  RH  062%=      5-min Rain = 0
KES1 020918Z 14007KT 24/17 A299 RMK A01 T02420166  RH  062%=      5-min Rain = 0
KES1 020919Z 15007KT 24/17 A299 RMK A01 T02420166  RH  062%=      5-min Rain = 0
KES1 020920Z 15007KT 24/17 A299 RMK A01 T02420165  RH  062%=      5-min Rain = 0
KES1 020921Z 14007KT 24/17 A299 RMK A01 T02420165  RH  062%=      5-min Rain = 0
KES1 020922Z 15008KT 24/17 A299 RMK A01 T02420165  RH  062%=      5-min Rain = 0
KES1 020923Z 15008KT 24/17 A299 RMK A01 T02420165  RH  062%=      5-min Rain = 0
KES1 020924Z 15008KT 24/17 A299 RMK A01 T02420165  RH  062%=      5-min Rain = 0
KES1 020925Z 15008KT 24/17 A299 RMK A01 T02420165  RH  062%=      5-min Rain = 0
KES1 020926Z 15008KT 24/17 A299 RMK A01 T02410165  RH  062%=      5-min Rain = 0
KES1 020927Z 15008KT 24/17 A299 RMK A01 T02410165  RH  062%=      5-min Rain = 0
KES1 020928Z 15007KT 24/17 A299 RMK A01 T02410165  RH  062%=      5-min Rain = 0
KES1 020929Z 14007KT 24/16 A299 RMK A01 T02400164  RH  063%=      5-min Rain = 0
KES1 020930Z 14007KT 24/17 A299 RMK A01 T02400165  RH  063%=      5-min Rain = 0
KES1 020931Z 15007KT 24/17 A299 RMK A01 T02410165  RH  063%=      5-min Rain = 0
KES1 020932Z 15007KT 24/16 A299 RMK A01 T02400164  RH  062%=      5-min Rain = 0
KES1 020933Z 14007KT 24/16 A299 RMK A01 T02400164  RH  062%=      5-min Rain = 0
KES1 020934Z 14008KT 24/16 A299 RMK A01 T02400164  RH  062%=      5-min Rain = 0
KES1 020935Z 14008KT 24/16 A299 RMK A01 T02400164  RH  062%=      5-min Rain = 0
KES1 020936Z 14009KT 24/16 A299 RMK A01 T02400164  RH  062%=      5-min Rain = 0
KES1 020937Z 14009KT 24/16 A299 RMK A01 T02400163  RH  062%=      5-min Rain = 0
KES1 020938Z 14008KT 24/16 A299 RMK A01 T02400163  RH  062%=      5-min Rain = 0
KES1 020939Z 14008KT 24/16 A299 RMK A01 T02400164  RH  062%=      5-min Rain = 0
KES1 020940Z 14009KT 24/16 A299 RMK A01 T02390164  RH  062%=      5-min Rain = 0
KES1 020941Z 14009KT 24/16 A299 RMK A01 T02390163  RH  063%=      5-min Rain = 0
KES1 020942Z 15009KT 24/16 A299 RMK A01 T02390163  RH  063%=      5-min Rain = 0
KES1 020943Z 15009KT 24/16 A299 RMK A01 T02380163  RH  063%=      5-min Rain = 0
KES1 020944Z 15009KT 24/16 A299 RMK A01 T02380163  RH  063%=      5-min Rain = 0
KES1 020945Z 15009KT 24/16 A299 RMK A01 T02380162  RH  062%=      5-min Rain = 0
KES1 020946Z 15009KT 24/16 A299 RMK A01 T02390162  RH  062%=      5-min Rain = 0
KES1 020947Z 15008KT 24/16 A299 RMK A01 T02390162  RH  062%=      5-min Rain = 0
KES1 020948Z 15008KT 24/16 A299 RMK A01 T02390162  RH  062%=      5-min Rain = 0
KES1 020949Z 15008KT 24/16 A299 RMK A01 T02400163  RH  062%=      5-min Rain = 0
KES1 020950Z 15008KT 24/16 A299 RMK A01 T02390162  RH  062%=      5-min Rain = 0
KES1 020951Z 15008KT 24/16 A299 RMK A01 T02390162  RH  062%=      5-min Rain = 0
KES1 020952Z 15009KT 24/16 A299 RMK A01 T02390162  RH  062%=      5-min Rain = 0
KES1 020953Z 15008KT 24/16 A299 RMK A01 T02400162  RH  062%=      5-min Rain = 0
KES1 020954Z 16008KT 24/16 A299 RMK A01 T02390162  RH  062%=      5-min Rain = 0
KES1 020955Z 15007KT 24/16 A299 RMK A01 T02390162  RH  062%=      5-min Rain = 0
KES1 020956Z 15008KT 24/16 A299 RMK A01 T02390163  RH  062%=      5-min Rain = 0
KES1 020957Z 15008KT 24/16 A299 RMK A01 T02390162  RH  062%=      5-min Rain = 0
KES1 020958Z 16008KT 24/16 A299 RMK A01 T02380162  RH  062%=      5-min Rain = 0
KES1 020959Z 16008KT 24/16 A299 RMK A01 T02380162  RH  062%=      5-min Rain = 0
KES1 021000Z 16008KT 24/16 A299 RMK A01 T02380162  RH  062%=      5-min Rain = 0
KES1 021001Z 16007KT 24/16 A299 RMK A01 T02380162  RH  063%=      5-min Rain = 0
KES1 021002Z 16007KT 24/16 A2991 RMK A01 T02370162  RH  063%=      5-min Rain = 0
KES1 021003Z 16008KT 24/16 A299 RMK A01 T02370162  RH  063%=      5-min Rain = 0
KES1 021004Z 16008KT 24/16 A299 RMK A01 T02370162  RH  063%=      5-min Rain = 0
KES1 021005Z 16008KT 24/16 A299 RMK A01 T02360162  RH  063%=      5-min Rain = 0
KES1 021006Z 16007KT 24/16 A2991 RMK A01 T02370162  RH  063%=      5-min Rain = 0
KES1 021007Z 17007KT 24/16 A2991 RMK A01 T02360162  RH  063%=      5-min Rain = 0
KES1 021008Z 16008KT 24/16 A2991 RMK A01 T02360162  RH  063%=      5-min Rain = 0
KES1 021009Z 16007KT 24/16 A2991 RMK A01 T02360162  RH  063%=      5-min Rain = 0
KES1 021010Z 17008KT 24/16 A2991 RMK A01 T02360162  RH  063%=      5-min Rain = 0
KES1 021011Z 17008KT 24/16 A2991 RMK A01 T02360162  RH  063%=      5-min Rain = 0
KES1 021012Z 17008KT 24/16 A2991 RMK A01 T02360162  RH  063%=      5-min Rain = 0
KES1 021013Z 17007KT 24/16 A2991 RMK A01 T02360162  RH  063%=      5-min Rain = 0
KES1 021014Z 17007KT 24/16 A2991 RMK A01 T02360162  RH  063%=      5-min Rain = 0
KES1 021015Z 17008KT 24/16 A2991 RMK A01 T02360162  RH  063%=      5-min Rain = 0
KES1 021016Z 17008KT 24/16 A2991 RMK A01 T02360162  RH  063%=      5-min Rain = 0
KES1 021017Z 17007KT 24/16 A2991 RMK A01 T02360161  RH  063%=      5-min Rain = 0
KES1 021018Z 17008KT 24/16 A2991 RMK A01 T02360162  RH  063%=      5-min Rain = 0
KES1 021019Z 17008KT 24/16 A2991 RMK A01 T02360162  RH  063%=      5-min Rain = 0
KES1 021020Z 17007KT 24/16 A2991 RMK A01 T02360162  RH  063%=      5-min Rain = 0
KES1 021021Z 17007KT 24/16 A2991 RMK A01 T02360162  RH  063%=      5-min Rain = 0
KES1 021022Z 17007KT 24/16 A2991 RMK A01 T02360162  RH  063%=      5-min Rain = 0
KES1 021023Z 17007KT 24/16 A2991 RMK A01 T02350162  RH  063%=      5-min Rain = 0
KES1 021024Z 16009KT 24/16 A299 RMK A01 T02350162  RH  064%=      5-min Rain = 0
KES1 021025Z 16010KT 24/16 A299 RMK A01 T02350162  RH  064%=      5-min Rain = 0
KES1 021026Z 16009KT 24/16 A299 RMK A01 T02360163  RH  064%=      5-min Rain = 0
KES1 021027Z 17009KT 24/16 A299 RMK A01 T02360163  RH  064%=      5-min Rain = 0
KES1 021028Z 17008KT 24/16 A299 RMK A01 T02360163  RH  064%=      5-min Rain = 0
KES1 021029Z 16009KT 24/16 A299 RMK A01 T02360163  RH  064%=      5-min Rain = 0
KES1 021030Z 17009KT 24/16 A299 RMK A01 T02360163  RH  064%=      5-min Rain = 0
KES1 021031Z 16010KT 24/16 A299 RMK A01 T02360163  RH  064%=      5-min Rain = 0
KES1 021032Z 16009KT 24/16 A299 RMK A01 T02360163  RH  064%=      5-min Rain = 0
KES1 021033Z 16009KT 24/16 A299 RMK A01 T02360164  RH  064%=      5-min Rain = 0
KES1 021034Z 16009KT 24/16 A299 RMK A01 T02360164  RH  064%=      5-min Rain = 0
KES1 021035Z 16008KT 24/16 A299 RMK A01 T02360164  RH  064%=      5-min Rain = 0
KES1 021036Z 16008KT 24/17 A299 RMK A01 T02360165  RH  064%=      5-min Rain = 0
KES1 021037Z 15008KT 24/16 A299 RMK A01 T02350164  RH  065%=      5-min Rain = 0
KES1 021038Z 16008KT 23/17 A299 RMK A01 T02340165  RH  065%=      5-min Rain = 0
KES1 021039Z 16008KT 23/16 A299 RMK A01 T02330164  RH  065%=      5-min Rain = 0
KES1 021040Z 16009KT 23/17 A299 RMK A01 T02330165  RH  066%=      5-min Rain = 0
KES1 021041Z 17008KT 23/17 A299 RMK A01 T02320165  RH  066%=      5-min Rain = 0
KES1 021042Z 16007KT 23/16 A299 RMK A01 T02320164  RH  066%=      5-min Rain = 0
KES1 021043Z 16007KT 23/17 A299 RMK A01 T02320165  RH  066%=      5-min Rain = 0
KES1 021044Z 17007KT 23/17 A299 RMK A01 T02320165  RH  066%=      5-min Rain = 0
KES1 021045Z 17007KT 23/16 A299 RMK A01 T02320164  RH  066%=      5-min Rain = 0
KES1 021046Z 17007KT 23/17 A299 RMK A01 T02320165  RH  066%=      5-min Rain = 0
KES1 021047Z 17007KT 23/16 A299 RMK A01 T02320164  RH  066%=      5-min Rain = 0
KES1 021048Z 17007KT 23/16 A299 RMK A01 T02330164  RH  065%=      5-min Rain = 0
KES1 021049Z 17006KT 23/16 A299 RMK A01 T02340164  RH  065%=      5-min Rain = 0
KES1 021050Z 17006KT 23/16 A299 RMK A01 T02330164  RH  065%=      5-min Rain = 0
KES1 021051Z 17008KT 23/16 A299 RMK A01 T02340164  RH  065%=      5-min Rain = 0
KES1 021052Z 17008KT 24/16 A299 RMK A01 T02350164  RH  065%=      5-min Rain = 0
KES1 021053Z 17008KT 24/16 A299 RMK A01 T02350164  RH  064%=      5-min Rain = 0
KES1 021054Z 18007KT 24/16 A299 RMK A01 T02360164  RH  064%=      5-min Rain = 0
KES1 021055Z 18008KT 24/16 A299 RMK A01 T02360164  RH  064%=      5-min Rain = 0
KES1 021056Z 17009KT 24/16 A299 RMK A01 T02360164  RH  064%=      5-min Rain = 0
KES1 021057Z 18008KT 24/16 A299 RMK A01 T02360164  RH  064%=      5-min Rain = 0
KES1 021058Z 17007KT 24/16 A299 RMK A01 T02370164  RH  064%=      5-min Rain = 0
KES1 021059Z 17008KT 24/16 A299 RMK A01 T02370164  RH  064%=      5-min Rain = 0
KES1 021100Z 18008KT 24/16 A299 RMK A01 T02370164  RH  064%=      5-min Rain = 0
KES1 021101Z 18007KT 24/16 A299 RMK A01 T02370164  RH  064%=      5-min Rain = 0
KES1 021102Z 18007KT 24/16 A299 RMK A01 T02370164  RH  064%=      5-min Rain = 0
KES1 021103Z 18008KT 24/16 A299 RMK A01 T02360164  RH  064%=      5-min Rain = 0
KES1 021104Z 18008KT 24/16 A299 RMK A01 T02360164  RH  064%=      5-min Rain = 0
KES1 021105Z 18008KT 24/16 A299 RMK A01 T02360164  RH  064%=      5-min Rain = 0
KES1 021106Z 18008KT 24/16 A299 RMK A01 T02360164  RH  064%=      5-min Rain = 0
KES1 021107Z 18008KT 24/16 A299 RMK A01 T02350164  RH  064%=      5-min Rain = 0
KES1 021108Z 18008KT 24/16 A299 RMK A01 T02350164  RH  064%=      5-min Rain = 0
KES1 021109Z 18008KT 24/16 A299 RMK A01 T02350163  RH  064%=      5-min Rain = 0
KES1 021110Z 18008KT 24/16 A299 RMK A01 T02350163  RH  064%=      5-min Rain = 0
KES1 021111Z 18008KT 24/16 A299 RMK A01 T02350163  RH  064%=      5-min Rain = 0
KES1 021112Z 18008KT 24/16 A2991 RMK A01 T02350162  RH  064%=      5-min Rain = 0
KES1 021113Z 18009KT 24/16 A2991 RMK A01 T02350162  RH  063%=      5-min Rain = 0
KES1 021114Z 18009KT 24/16 A2991 RMK A01 T02360161  RH  063%=      5-min Rain = 0
KES1 021115Z 18008KT 24/16 A2991 RMK A01 T02370160  RH  062%=      5-min Rain = 0
KES1 021116Z 19009KT 24/16 A2991 RMK A01 T02380160  RH  062%=      5-min Rain = 0
KES1 021117Z 19009KT 24/16 A2991 RMK A01 T02390159  RH  061%=      5-min Rain = 0
KES1 021118Z 19007KT 24/16 A2991 RMK A01 T02400159  RH  061%=      5-min Rain = 0
KES1 021119Z 19008KT 24/16 A2991 RMK A01 T02400159  RH  061%=      5-min Rain = 0
KES1 021120Z 19008KT 24/16 A2991 RMK A01 T02400159  RH  061%=      5-min Rain = 0
KES1 021121Z 20008KT 24/16 A2991 RMK A01 T02400159  RH  061%=      5-min Rain = 0
KES1 021122Z 20007KT 24/16 A2991 RMK A01 T02400159  RH  061%=      5-min Rain = 0
KES1 021123Z 20007KT 24/16 A2991 RMK A01 T02400159  RH  060%=      5-min Rain = 0
KES1 021124Z 19008KT 24/16 A2991 RMK A01 T02400159  RH  060%=      5-min Rain = 0
KES1 021125Z 19008KT 24/16 A2991 RMK A01 T02400159  RH  060%=      5-min Rain = 0
KES1 021126Z 19007KT 24/16 A2991 RMK A01 T02400159  RH  060%=      5-min Rain = 0
KES1 021127Z 19006KT 24/16 A2991 RMK A01 T02390159  RH  061%=      5-min Rain = 0
KES1 021128Z 19007KT 24/16 A2991 RMK A01 T02390159  RH  061%=      5-min Rain = 0
KES1 021129Z 19006KT 24/16 A2991 RMK A01 T02390159  RH  061%=      5-min Rain = 0
KES1 021130Z 19007KT 24/16 A2991 RMK A01 T02380159  RH  061%=      5-min Rain = 0
KES1 021131Z 19007KT 24/16 A2991 RMK A01 T02380159  RH  061%=      5-min Rain = 0
KES1 021132Z 19007KT 24/16 A2991 RMK A01 T02380159  RH  061%=      5-min Rain = 0
KES1 021133Z 18007KT 24/16 A2991 RMK A01 T02370159  RH  061%=      5-min Rain = 0
KES1 021134Z 18006KT 24/16 A2991 RMK A01 T02370159  RH  062%=      5-min Rain = 0
KES1 021135Z 18006KT 24/16 A2991 RMK A01 T02360159  RH  062%=      5-min Rain = 0
KES1 021136Z 18006KT 24/16 A2991 RMK A01 T02350159  RH  062%=      5-min Rain = 0
KES1 021137Z 18007KT 23/16 A2991 RMK A01 T02340159  RH  063%=      5-min Rain = 0
KES1 021138Z 18007KT 23/16 A2991 RMK A01 T02340159  RH  063%=      5-min Rain = 0
KES1 021139Z 18007KT 23/16 A2991 RMK A01 T02330159  RH  063%=      5-min Rain = 0
KES1 021140Z 19006KT 23/16 A2991 RMK A01 T02330159  RH  063%=      5-min Rain = 0
KES1 021141Z 19006KT 23/16 A2992 RMK A01 T02330159  RH  063%=      5-min Rain = 0
KES1 021142Z 18005KT 23/16 A2992 RMK A01 T02330159  RH  063%=      5-min Rain = 0
KES1 021143Z 18005KT 23/16 A2992 RMK A01 T02330159  RH  063%=      5-min Rain = 0
KES1 021144Z 19005KT 23/16 A2992 RMK A01 T02320159  RH  063%=      5-min Rain = 0
KES1 021145Z 18005KT 23/16 A2992 RMK A01 T02320159  RH  063%=      5-min Rain = 0
KES1 021146Z 18005KT 23/16 A2991 RMK A01 T02320159  RH  064%=      5-min Rain = 0
KES1 021147Z 18006KT 23/16 A2991 RMK A01 T02320159  RH  064%=      5-min Rain = 0
KES1 021148Z 19006KT 23/16 A2991 RMK A01 T02320160  RH  064%=      5-min Rain = 0
KES1 021149Z 19006KT 23/16 A2991 RMK A01 T02320159  RH  064%=      5-min Rain = 0
KES1 021150Z 19006KT 23/16 A2991 RMK A01 T02310159  RH  064%=      5-min Rain = 0
KES1 021151Z 19007KT 23/16 A2991 RMK A01 T02310159  RH  064%=      5-min Rain = 0
KES1 021152Z 20007KT 23/16 A2991 RMK A01 T02310159  RH  064%=      5-min Rain = 0
KES1 021153Z 19007KT 23/16 A2991 RMK A01 T02310160  RH  064%=      5-min Rain = 0
KES1 021154Z 19007KT 23/16 A2991 RMK A01 T02310160  RH  064%=      5-min Rain = 0
KES1 021155Z 19006KT 23/16 A2991 RMK A01 T02310160  RH  064%=      5-min Rain = 0
KES1 021156Z 19007KT 23/16 A2991 RMK A01 T02310160  RH  064%=      5-min Rain = 0
KES1 021157Z 19007KT 23/16 A2991 RMK A01 T02310160  RH  064%=      5-min Rain = 0
KES1 021158Z 19006KT 23/16 A2991 RMK A01 T02310160  RH  064%=      5-min Rain = 0
KES1 021159Z 19006KT 23/16 A2991 RMK A01 T02310160  RH  064%=      5-min Rain = 0
KES1 021200Z 19007KT 23/16 A2991 RMK A01 T02310160  RH  064%=      5-min Rain = 0
KES1 021201Z 19007KT 23/16 A2991 RMK A01 T02310160  RH  064%=      5-min Rain = 0
KES1 021202Z 20007KT 23/16 A2991 RMK A01 T02310160  RH  064%=      5-min Rain = 0
KES1 021203Z 20007KT 23/16 A2992 RMK A01 T02310160  RH  064%=      5-min Rain = 0
KES1 021204Z 20007KT 23/16 A2992 RMK A01 T02310160  RH  064%=      5-min Rain = 0
KES1 021205Z 19006KT 23/16 A2992 RMK A01 T02310160  RH  064%=      5-min Rain = 0
KES1 021206Z 19006KT 23/16 A2992 RMK A01 T02310160  RH  064%=      5-min Rain = 0
KES1 021207Z 19007KT 23/16 A2992 RMK A01 T02320160  RH  064%=      5-min Rain = 0
KES1 021208Z 19007KT 23/16 A2992 RMK A01 T02330160  RH  064%=      5-min Rain = 0
KES1 021209Z 19007KT 23/16 A2992 RMK A01 T02330160  RH  064%=      5-min Rain = 0
KES1 021210Z 19006KT 23/16 A2992 RMK A01 T02330160  RH  064%=      5-min Rain = 0
KES1 021211Z 19007KT 23/16 A2992 RMK A01 T02330160  RH  064%=      5-min Rain = 0
KES1 021212Z 20006KT 23/16 A2992 RMK A01 T02330160  RH  064%=      5-min Rain = 0
KES1 021213Z 20006KT 23/16 A2992 RMK A01 T02330160  RH  064%=      5-min Rain = 0
KES1 021214Z 19007KT 23/16 A2992 RMK A01 T02330160  RH  064%=      5-min Rain = 0
KES1 021215Z 19007KT 23/16 A2992 RMK A01 T02330160  RH  063%=      5-min Rain = 0
KES1 021216Z 19007KT 23/16 A2992 RMK A01 T02340160  RH  063%=      5-min Rain = 0
KES1 021217Z 19007KT 23/16 A2992 RMK A01 T02340160  RH  063%=      5-min Rain = 0
KES1 021218Z 18007KT 24/16 A2992 RMK A01 T02350161  RH  063%=      5-min Rain = 0
KES1 021219Z 18007KT 23/16 A2992 RMK A01 T02340161  RH  063%=      5-min Rain = 0
KES1 021220Z 19007KT 23/16 A2992 RMK A01 T02340161  RH  063%=      5-min Rain = 0
KES1 021221Z 19007KT 23/16 A2992 RMK A01 T02340161  RH  063%=      5-min Rain = 0
KES1 021222Z 19007KT 23/16 A2992 RMK A01 T02340160  RH  063%=      5-min Rain = 0
KES1 021223Z 19007KT 24/16 A2992 RMK A01 T02350160  RH  063%=      5-min Rain = 0
KES1 021224Z 20007KT 24/16 A2992 RMK A01 T02360161  RH  063%=      5-min Rain = 0
KES1 021225Z 19007KT 24/16 A2992 RMK A01 T02360160  RH  063%=      5-min Rain = 0
KES1 021226Z 19006KT 24/16 A2992 RMK A01 T02360161  RH  062%=      5-min Rain = 0
KES1 021227Z 19006KT 24/16 A2992 RMK A01 T02370161  RH  062%=      5-min Rain = 0
KES1 021228Z 18006KT 24/16 A2992 RMK A01 T02380162  RH  062%=      5-min Rain = 0
KES1 021229Z 18006KT 24/16 A2992 RMK A01 T02390162  RH  062%=      5-min Rain = 0
KES1 021230Z 19006KT 24/16 A2992 RMK A01 T02390162  RH  062%=      5-min Rain = 0
KES1 021231Z 19006KT 24/16 A2992 RMK A01 T02390162  RH  062%=      5-min Rain = 0
KES1 021232Z 20006KT 24/16 A2992 RMK A01 T02400163  RH  062%=      5-min Rain = 0
KES1 021233Z 20005KT 24/16 A2992 RMK A01 T02390162  RH  062%=      5-min Rain = 0
KES1 021234Z 19005KT 24/16 A2992 RMK A01 T02390163  RH  062%=      5-min Rain = 0
KES1 021235Z 19004KT 24/16 A2992 RMK A01 T02400163  RH  062%=      5-min Rain = 0
KES1 021236Z 18005KT 24/16 A2992 RMK A01 T02400163  RH  062%=      5-min Rain = 0
KES1 021237Z 18005KT 24/16 A2992 RMK A01 T02410163  RH  062%=      5-min Rain = 0
KES1 021238Z 18005KT 24/16 A2992 RMK A01 T02420164  RH  062%=      5-min Rain = 0
KES1 021239Z 18006KT 24/16 A2992 RMK A01 T02430164  RH  061%=      5-min Rain = 0
KES1 021240Z 18005KT 24/17 A2992 RMK A01 T02440165  RH  061%=      5-min Rain = 0
KES1 021241Z 18005KT 25/17 A2992 RMK A01 T02450165  RH  061%=      5-min Rain = 0
KES1 021242Z 18004KT 25/17 A2992 RMK A01 T02460166  RH  061%=      5-min Rain = 0
KES1 021243Z 18004KT 25/17 A2992 RMK A01 T02460165  RH  060%=      5-min Rain = 0
KES1 021244Z 18005KT 25/17 A2993 RMK A01 T02460166  RH  061%=      5-min Rain = 0
KES1 021245Z 18006KT 25/17 A2993 RMK A01 T02460165  RH  060%=      5-min Rain = 0
KES1 021246Z 18006KT 25/17 A2993 RMK A01 T02460165  RH  060%=      5-min Rain = 0
KES1 021247Z 18005KT 25/17 A2993 RMK A01 T02470165  RH  060%=      5-min Rain = 0
KES1 021248Z 18006KT 25/17 A2993 RMK A01 T02470165  RH  060%=      5-min Rain = 0
KES1 021249Z 18006KT 25/17 A2993 RMK A01 T02470165  RH  060%=      5-min Rain = 0
KES1 021250Z 18007KT 25/17 A2993 RMK A01 T02490166  RH  060%=      5-min Rain = 0
KES1 021251Z 18008KT 25/17 A2993 RMK A01 T02490166  RH  060%=      5-min Rain = 0
KES1 021252Z 18008KT 25/17 A2993 RMK A01 T02500165  RH  059%=      5-min Rain = 0
KES1 021253Z 18007KT 25/17 A2993 RMK A01 T02500165  RH  059%=      5-min Rain = 0
KES1 021254Z 18008KT 25/17 A2993 RMK A01 T02510166  RH  059%=      5-min Rain = 0
KES1 021255Z 18007KT 25/17 A2993 RMK A01 T02520166  RH  059%=      5-min Rain = 0
KES1 021256Z 18007KT 25/17 A2993 RMK A01 T02520166  RH  059%=      5-min Rain = 0
KES1 021257Z 17008KT 25/17 A2993 RMK A01 T02520166  RH  059%=      5-min Rain = 0
KES1 021258Z 17006KT 25/17 A2993 RMK A01 T02520167  RH  059%=      5-min Rain = 0
KES1 021259Z 18007KT 25/17 A2993 RMK A01 T02530168  RH  059%=      5-min Rain = 0
KES1 021300Z 17006KT 25/17 A2993 RMK A01 T02540167  RH  058%=      5-min Rain = 0
KES1 021301Z 17006KT 26/17 A2993 RMK A01 T02550167  RH  058%=      5-min Rain = 0
KES1 021302Z 16008KT 26/17 A2994 RMK A01 T02560168  RH  058%=      5-min Rain = 0
KES1 021303Z 17007KT 26/17 A2994 RMK A01 T02560168  RH  058%=      5-min Rain = 0
KES1 021304Z 17005KT 26/17 A2994 RMK A01 T02560169  RH  059%=      5-min Rain = 0
KES1 021305Z 17006KT 26/17 A2994 RMK A01 T02570169  RH  058%=      5-min Rain = 0
KES1 021306Z 17006KT 26/17 A2994 RMK A01 T02570168  RH  058%=      5-min Rain = 0
KES1 021307Z 17006KT 26/17 A2994 RMK A01 T02580168  RH  058%=      5-min Rain = 0
KES1 021308Z 17005KT 26/17 A2994 RMK A01 T02590168  RH  057%=      5-min Rain = 0
KES1 021309Z 18006KT 26/17 A2994 RMK A01 T02600169  RH  057%=      5-min Rain = 0
KES1 021310Z 17007KT 26/17 A2994 RMK A01 T02610169  RH  057%=      5-min Rain = 0
KES1 021311Z 17006KT 26/17 A2994 RMK A01 T02620168  RH  056%=      5-min Rain = 0
KES1 021312Z 18006KT 26/17 A2994 RMK A01 T02630169  RH  056%=      5-min Rain = 0
KES1 021313Z 17007KT 26/17 A2995 RMK A01 T02640169  RH  056%=      5-min Rain = 0
KES1 021314Z 17007KT 27/17 A2995 RMK A01 T02660170  RH  056%=      5-min Rain = 0
KES1 021315Z 17011KT 27/17 A2995 RMK A01 T02670169  RH  055%=      5-min Rain = 0
KES1 021316Z 17009KT 27/17 A2995 RMK A01 T02670168  RH  054%=      5-min Rain = 0
KES1 021317Z 16009KT 27/17 A2995 RMK A01 T02660168  RH  055%=      5-min Rain = 0
KES1 021318Z 17009KT 27/17 A2995 RMK A01 T02660168  RH  055%=      5-min Rain = 0
KES1 021319Z 17009KT 27/17 A2995 RMK A01 T02660167  RH  055%=      5-min Rain = 0
KES1 021320Z 17009KT 27/17 A2995 RMK A01 T02660168  RH  055%=      5-min Rain = 0
KES1 021321Z 17008KT 27/17 A2995 RMK A01 T02660168  RH  055%=      5-min Rain = 0
KES1 021322Z 17008KT 27/17 A2995 RMK A01 T02650168  RH  055%=      5-min Rain = 0
KES1 021323Z 17007KT 27/17 A2995 RMK A01 T02660168  RH  055%=      5-min Rain = 0
KES1 021324Z 17006KT 27/17 A2995 RMK A01 T02660168  RH  055%=      5-min Rain = 0
KES1 021325Z 16008KT 27/17 A2995 RMK A01 T02670169  RH  055%=      5-min Rain = 0
KES1 021326Z 18008KT 27/17 A2995 RMK A01 T02670168  RH  054%=      5-min Rain = 0
KES1 021327Z 17008KT 27/17 A2995 RMK A01 T02680169  RH  055%=      5-min Rain = 0
KES1 021328Z 17007KT 27/17 A2995 RMK A01 T02690169  RH  054%=      5-min Rain = 0
KES1 021329Z 17010KT 27/17 A2995 RMK A01 T02700167  RH  053%=      5-min Rain = 0
KES1 021330Z 17008KT 27/17 A2995 RMK A01 T02700167  RH  053%=      5-min Rain = 0
KES1 021331Z 18009KT 27/17 A2995 RMK A01 T02710168  RH  053%=      5-min Rain = 0
KES1 021332Z 18008KT 27/17 A2995 RMK A01 T02720166  RH  053%=      5-min Rain = 0
KES1 021333Z 18010KT 27/17 A2995 RMK A01 T02720167  RH  053%=      5-min Rain = 0
KES1 021334Z 18009KT 27/17 A2995 RMK A01 T02730167  RH  052%=      5-min Rain = 0
KES1 021335Z 18010KT 27/17 A2995 RMK A01 T02720167  RH  053%=      5-min Rain = 0
KES1 021336Z 18012KT 27/17 A2995 RMK A01 T02740168  RH  052%=      5-min Rain = 0
KES1 021337Z 18009KT 28/17 A2995 RMK A01 T02750168  RH  052%=      5-min Rain = 0
KES1 021338Z 18009KT 28/17 A2995 RMK A01 T02750168  RH  052%=      5-min Rain = 0
KES1 021339Z 18009KT 28/17 A2995 RMK A01 T02760169  RH  052%=      5-min Rain = 0
KES1 021340Z 18007KT 28/17 A2995 RMK A01 T02770169  RH  052%=      5-min Rain = 0
KES1 021341Z 18010KT 28/17 A2995 RMK A01 T02790170  RH  051%=      5-min Rain = 0
KES1 021342Z 17009KT 28/17 A2995 RMK A01 T02800168  RH  051%=      5-min Rain = 0
KES1 021343Z 18009KT 28/17 A2995 RMK A01 T02800169  RH  051%=      5-min Rain = 0
KES1 021344Z 17010KT 28/17 A2995 RMK A01 T02810168  RH  050%=      5-min Rain = 0
KES1 021345Z 17008KT 28/17 A2995 RMK A01 T02810169  RH  051%=      5-min Rain = 0
KES1 021346Z 17009KT 28/17 A2995 RMK A01 T02810169  RH  051%=      5-min Rain = 0
KES1 021347Z 18010KT 28/17 A2995 RMK A01 T02820169  RH  050%=      5-min Rain = 0
KES1 021348Z 17008KT 28/17 A2995 RMK A01 T02820169  RH  050%=      5-min Rain = 0
KES1 021349Z 17007KT 28/17 A2995 RMK A01 T02830171  RH  051%=      5-min Rain = 0
KES1 021350Z 17007KT 29/17 A2996 RMK A01 T02850171  RH  050%=      5-min Rain = 0
KES1 021351Z 17008KT 29/17 A2996 RMK A01 T02860171  RH  050%=      5-min Rain = 0
KES1 021352Z 18008KT 29/17 A2996 RMK A01 T02870171  RH  050%=      5-min Rain = 0
KES1 021353Z 18009KT 29/17 A2996 RMK A01 T02880171  RH  049%=      5-min Rain = 0
KES1 021354Z 18007KT 29/17 A2996 RMK A01 T02870170  RH  049%=      5-min Rain = 0
KES1 021355Z 18010KT 29/17 A2996 RMK A01 T02870170  RH  049%=      5-min Rain = 0
KES1 021356Z 17009KT 29/17 A2996 RMK A01 T02860170  RH  049%=      5-min Rain = 0
KES1 021357Z 17006KT 29/17 A2996 RMK A01 T02860170  RH  049%=      5-min Rain = 0
KES1 021358Z 16005KT 29/17 A2996 RMK A01 T02880172  RH  049%=      5-min Rain = 0
KES1 021359Z 16007KT 29/17 A2996 RMK A01 T02890171  RH  049%=      5-min Rain = 0
KES1 021400Z 16007KT 29/17 A2996 RMK A01 T02900171  RH  049%=      5-min Rain = 0
KES1 021401Z 17007KT 29/17 A2996 RMK A01 T02910172  RH  049%=      5-min Rain = 0
KES1 021402Z 17007KT 29/17 A2996 RMK A01 T02910172  RH  048%=      5-min Rain = 0
KES1 021403Z 19007KT 29/17 A2996 RMK A01 T02920172  RH  048%=      5-min Rain = 0
KES1 021404Z 19007KT 29/17 A2996 RMK A01 T02920171  RH  048%=      5-min Rain = 0
KES1 021405Z 19008KT 29/17 A2996 RMK A01 T02920170  RH  048%=      5-min Rain = 0
KES1 021406Z 19007KT 29/17 A2996 RMK A01 T02910171  RH  048%=      5-min Rain = 0
KES1 021407Z 19006KT 29/17 A2996 RMK A01 T02910171  RH  048%=      5-min Rain = 0
KES1 021408Z 19007KT 29/17 A2996 RMK A01 T02910170  RH  048%=      5-min Rain = 0
KES1 021409Z 19007KT 29/17 A2996 RMK A01 T02920170  RH  048%=      5-min Rain = 0
KES1 021410Z 19008KT 29/17 A2996 RMK A01 T02920170  RH  048%=      5-min Rain = 0
KES1 021411Z 19006KT 29/17 A2996 RMK A01 T02930170  RH  047%=      5-min Rain = 0
KES1 021412Z 20010KT 29/17 A2996 RMK A01 T02930170  RH  047%=      5-min Rain = 0
KES1 021413Z 19008KT 29/17 A2996 RMK A01 T02940168  RH  047%=      5-min Rain = 0
KES1 021414Z 20009KT 29/17 A2996 RMK A01 T02940170  RH  047%=      5-min Rain = 0
KES1 021415Z 19010KT 29/17 A2996 RMK A01 T02940169  RH  047%=      5-min Rain = 0
KES1 021416Z 19009KT 29/17 A2996 RMK A01 T02940168  RH  047%=      5-min Rain = 0
KES1 021417Z 19010KT 29/17 A2996 RMK A01 T02930167  RH  047%=      5-min Rain = 0
KES1 021418Z 20009KT 29/17 A2996 RMK A01 T02930168  RH  047%=      5-min Rain = 0
KES1 021419Z 21008KT 29/17 A2996 RMK A01 T02930169  RH  047%=      5-min Rain = 0
KES1 021420Z 20007KT 30/17 A2996 RMK A01 T02950171  RH  047%=      5-min Rain = 0
KES1 021421Z 17008KT 30/17 A2996 RMK A01 T02960171  RH  047%=      5-min Rain = 0
KES1 021422Z 17008KT 30/17 A2996 RMK A01 T02990171  RH  046%=      5-min Rain = 0
KES1 021423Z 18008KT 30/17 A2996 RMK A01 T03000170  RH  046%=      5-min Rain = 0
KES1 021424Z 20007KT 30/17 A2996 RMK A01 T03010172  RH  046%=      5-min Rain = 0
KES1 021425Z 19006KT 30/17 A2996 RMK A01 T03010172  RH  046%=      5-min Rain = 0
KES1 021426Z 19009KT 30/17 A2996 RMK A01 T03010171  RH  046%=      5-min Rain = 0
KES1 021427Z 19007KT 30/17 A2996 RMK A01 T03000170  RH  046%=      5-min Rain = 0
KES1 021428Z 19009KT 30/17 A2996 RMK A01 T02990170  RH  046%=      5-min Rain = 0
KES1 021429Z 20009KT 30/17 A2996 RMK A01 T02980170  RH  046%=      5-min Rain = 0
KES1 021430Z 20009KT 30/17 A2996 RMK A01 T02970170  RH  046%=      5-min Rain = 0
KES1 021431Z 22008KT 30/17 A2996 RMK A01 T02970169  RH  046%=      5-min Rain = 0
KES1 021432Z 22008KT 30/17 A2996 RMK A01 T02970171  RH  047%=      5-min Rain = 0
KES1 021433Z 22008KT 30/17 A2996 RMK A01 T02990171  RH  046%=      5-min Rain = 0
KES1 021434Z 20006KT 30/17 A2996 RMK A01 T02990171  RH  046%=      5-min Rain = 0
KES1 021435Z 19008KT 30/17 A2996 RMK A01 T03010172  RH  046%=      5-min Rain = 0
KES1 021436Z 21008KT 30/17 A2996 RMK A01 T03020172  RH  046%=      5-min Rain = 0
KES1 021437Z 20008KT 30/17 A2996 RMK A01 T03020170  RH  045%=      5-min Rain = 0
KES1 021438Z 21009KT 30/17 A2996 RMK A01 T03010171  RH  046%=      5-min Rain = 0
KES1 021439Z 20010KT 30/17 A2996 RMK A01 T03000170  RH  046%=      5-min Rain = 0
KES1 021440Z 20008KT 30/17 A2996 RMK A01 T02990170  RH  046%=      5-min Rain = 0
KES1 021441Z 19008KT 30/17 A2996 RMK A01 T02990171  RH  046%=      5-min Rain = 0
KES1 021442Z 20007KT 30/17 A2996 RMK A01 T02990171  RH  046%=      5-min Rain = 0
KES1 021443Z 19006KT 30/17 A2996 RMK A01 T03010172  RH  046%=      5-min Rain = 0
KES1 021444Z 18007KT 30/17 A2996 RMK A01 T03020172  RH  045%=      5-min Rain = 0
KES1 021445Z 19008KT 30/17 A2996 RMK A01 T03030173  RH  046%=      5-min Rain = 0
KES1 021446Z 19010KT 30/17 A2996 RMK A01 T03040171  RH  045%=      5-min Rain = 0
KES1 021447Z 21009KT 30/17 A2996 RMK A01 T03040170  RH  045%=      5-min Rain = 0
KES1 021448Z 22007KT 30/17 A2996 RMK A01 T03030171  RH  045%=      5-min Rain = 0
KES1 021449Z 21008KT 30/17 A2996 RMK A01 T03030171  RH  045%=      5-min Rain = 0
KES1 021450Z 20008KT 30/17 A2996 RMK A01 T03040173  RH  045%=      5-min Rain = 0
KES1 021451Z 19008KT 31/17 A2996 RMK A01 T03070173  RH  045%=      5-min Rain = 0
KES1 021452Z 20009KT 31/17 A2996 RMK A01 T03080171  RH  044%=      5-min Rain = 0
KES1 021453Z 20007G12KT 31/17 A2996 RMK A01 T03070174  RH  045%=      5-min Rain = 0
KES1 021454Z 19011KT 31/17 A2996 RMK A01 T03080170  RH  044%=      5-min Rain = 0
KES1 021455Z 19007KT 31/17 A2996 RMK A01 T03070171  RH  044%=      5-min Rain = 0
KES1 021456Z 20006KT 31/17 A2996 RMK A01 T03070173  RH  045%=      5-min Rain = 0
KES1 021457Z 22008KT 31/17 A2996 RMK A01 T03090173  RH  044%=      5-min Rain = 0
KES1 021458Z 22009KT 31/17 A2996 RMK A01 T03100172  RH  044%=      5-min Rain = 0
KES1 021459Z 21008KT 31/17 A2996 RMK A01 T03100172  RH  043%=      5-min Rain = 0
KES1 021500Z 21007KT 31/17 A2996 RMK A01 T03100173  RH  044%=      5-min Rain = 0
KES1 021501Z 19007KT 31/17 A2996 RMK A01 T03100173  RH  044%=      5-min Rain = 0
KES1 021502Z 21007KT 31/17 A2996 RMK A01 T03120173  RH  043%=      5-min Rain = 0
KES1 021503Z 21007KT 31/17 A2996 RMK A01 T03120172  RH  043%=      5-min Rain = 0
KES1 021504Z 22008KT 31/17 A2996 RMK A01 T03110173  RH  044%=      5-min Rain = 0
KES1 021505Z 23007KT 31/17 A2996 RMK A01 T03130173  RH  043%=      5-min Rain = 0
KES1 021506Z 20008KT 31/17 A2996 RMK A01 T03140174  RH  043%=      5-min Rain = 0
KES1 021507Z 19007KT 31/17 A2996 RMK A01 T03140173  RH  043%=      5-min Rain = 0
KES1 021508Z 20008KT 31/17 A2996 RMK A01 T03140172  RH  043%=      5-min Rain = 0
KES1 021509Z 21008KT 31/17 A2996 RMK A01 T03130172  RH  043%=      5-min Rain = 0
KES1 021510Z 20009KT 31/17 A2995 RMK A01 T03130172  RH  043%=      5-min Rain = 0
KES1 021511Z 21006KT 31/17 A2995 RMK A01 T03130172  RH  043%=      5-min Rain = 0
KES1 021512Z 21005KT 31/17 A2995 RMK A01 T03140174  RH  043%=      5-min Rain = 0
KES1 021513Z 21007KT 32/17 A2995 RMK A01 T03160174  RH  043%=      5-min Rain = 0
KES1 021514Z 19007KT 32/18 A2995 RMK A01 T03190176  RH  042%=      5-min Rain = 0
KES1 021515Z 19009KT 32/17 A2995 RMK A01 T03200174  RH  042%=      5-min Rain = 0
KES1 021516Z 20007KT 32/17 A2995 RMK A01 T03210172  RH  041%=      5-min Rain = 0
KES1 021517Z 19008KT 32/17 A2995 RMK A01 T03200172  RH  041%=      5-min Rain = 0
KES1 021518Z 19007KT 32/17 A2995 RMK A01 T03180172  RH  042%=      5-min Rain = 0
KES1 021519Z 21007KT 32/17 A2995 RMK A01 T03170173  RH  042%=      5-min Rain = 0
KES1 021520Z 18008KT 32/17 A2995 RMK A01 T03170172  RH  042%=      5-min Rain = 0
KES1 021521Z 17007KT 32/17 A2995 RMK A01 T03180174  RH  042%=      5-min Rain = 0
KES1 021522Z 18007KT 32/18 A2995 RMK A01 T03230175  RH  041%=      5-min Rain = 0
KES1 021523Z 18006KT 33/17 A2995 RMK A01 T03250174  RH  041%=      5-min Rain = 0
KES1 021524Z 19007KT 32/17 A2995 RMK A01 T03240174  RH  041%=      5-min Rain = 0
KES1 021525Z 20008KT 32/17 A2995 RMK A01 T03220174  RH  041%=      5-min Rain = 0
KES1 021526Z 22006KT 32/17 A2995 RMK A01 T03220174  RH  041%=      5-min Rain = 0
KES1 021527Z 20006KT 32/18 A2995 RMK A01 T03220175  RH  041%=      5-min Rain = 0
KES1 021528Z 18008KT 32/17 A2995 RMK A01 T03240173  RH  041%=      5-min Rain = 0
KES1 021529Z 19008KT 32/17 A2995 RMK A01 T03240174  RH  041%=      5-min Rain = 0
KES1 021530Z 19004KT 32/18 A2996 RMK A01 T03240176  RH  041%=      5-min Rain = 0
KES1 021531Z 19009KT 33/18 A2995 RMK A01 T03260176  RH  041%=      5-min Rain = 0
KES1 021532Z 20007KT 33/17 A2995 RMK A01 T03270173  RH  040%=      5-min Rain = 0
KES1 021533Z 19006KT 33/18 A2995 RMK A01 T03250175  RH  041%=      5-min Rain = 0
KES1 021534Z 23007KT 33/18 A2996 RMK A01 T03260176  RH  041%=      5-min Rain = 0
KES1 021535Z 23007KT 33/18 A2996 RMK A01 T03280176  RH  040%=      5-min Rain = 0
KES1 021536Z 24007KT 33/18 A2996 RMK A01 T03290175  RH  040%=      5-min Rain = 0
KES1 021537Z 23007KT 33/17 A2996 RMK A01 T03290174  RH  040%=      5-min Rain = 0
KES1 021538Z 22004KT 33/18 A2996 RMK A01 T03280176  RH  040%=      5-min Rain = 0
KES1 021539Z 17005KT 33/18 A2996 RMK A01 T03300177  RH  040%=      5-min Rain = 0
KES1 021540Z 21003KT 33/18 A2996 RMK A01 T03310177  RH  040%=      5-min Rain = 0
KES1 021541Z 19004KT 33/18 A2996 RMK A01 T03330176  RH  039%=      5-min Rain = 0
KES1 021542Z 20004KT 33/17 A2996 RMK A01 T03330174  RH  039%=      5-min Rain = 0
KES1 021543Z 20008KT 33/18 A2996 RMK A01 T03320177  RH  040%=      5-min Rain = 0
KES1 021544Z 22010KT 33/18 A2996 RMK A01 T03330176  RH  039%=      5-min Rain = 0
KES1 021545Z 23008KT 33/17 A2996 RMK A01 T03320174  RH  039%=      5-min Rain = 0
KES1 021546Z 22005KT 33/18 A2996 RMK A01 T03300176  RH  040%=      5-min Rain = 0
KES1 021547Z 17007KT 33/18 A2996 RMK A01 T03310176  RH  040%=      5-min Rain = 0
KES1 021548Z 18005KT 33/18 A2996 RMK A01 T03330177  RH  040%=      5-min Rain = 0
KES1 021549Z 20004KT 33/18 A2996 RMK A01 T03340177  RH  039%=      5-min Rain = 0
KES1 021550Z 22007KT 33/18 A2996 RMK A01 T03320176  RH  040%=      5-min Rain = 0
KES1 021551Z 21009KT 33/18 A2996 RMK A01 T03310176  RH  040%=      5-min Rain = 0
KES1 021552Z 21009KT 33/17 A2996 RMK A01 T03300173  RH  039%=      5-min Rain = 0
KES1 021553Z 22005KT 33/17 A2996 RMK A01 T03270174  RH  040%=      5-min Rain = 0
KES1 021554Z 19007KT 33/18 A2996 RMK A01 T03280176  RH  041%=      5-min Rain = 0
KES1 021555Z 20007KT 33/18 A2996 RMK A01 T03300177  RH  040%=      5-min Rain = 0
KES1 021556Z 20008KT 33/18 A2996 RMK A01 T03320177  RH  040%=      5-min Rain = 0
KES1 021557Z 21006KT 33/18 A2996 RMK A01 T03310177  RH  040%=      5-min Rain = 0
KES1 021558Z 21006KT 33/18 A2996 RMK A01 T03310176  RH  040%=      5-min Rain = 0
KES1 021559Z 21007G14KT 33/18 A2996 RMK A01 T03300176  RH  040%=      5-min Rain = 0
KES1 021600Z 21009KT 33/18 A2996 RMK A01 T03290176  RH  040%=      5-min Rain = 0
KES1 021601Z 20007KT 33/18 A2996 RMK A01 T03300178  RH  041%=      5-min Rain = 0
KES1 021602Z 23005KT 33/18 A2996 RMK A01 T03310177  RH  040%=      5-min Rain = 0
KES1 021603Z 24007KT 33/18 A2995 RMK A01 T03320177  RH  040%=      5-min Rain = 0
KES1 021604Z 21008KT 34/18 A2995 RMK A01 T03350180  RH  040%=      5-min Rain = 0
KES1 021605Z 22009KT 34/18 A2995 RMK A01 T03370178  RH  039%=      5-min Rain = 0
KES1 021606Z 23008KT 34/18 A2995 RMK A01 T03360176  RH  039%=      5-min Rain = 0
KES1 021607Z 22007G12KT 34/18 A2995 RMK A01 T03350178  RH  040%=      5-min Rain = 0
KES1 021608Z 23009KT 34/18 A2996 RMK A01 T03360176  RH  039%=      5-min Rain = 0
KES1 021609Z 24007KT 34/18 A2996 RMK A01 T03360177  RH  039%=      5-min Rain = 0
KES1 021610Z 24005KT 34/17 A2996 RMK A01 T03360174  RH  038%=      5-min Rain = 0
KES1 021611Z 25004KT 33/18 A2995 RMK A01 T03340176  RH  039%=      5-min Rain = 0
KES1 021612Z 21005KT 33/18 A2995 RMK A01 T03340176  RH  039%=      5-min Rain = 0
KES1 021613Z 20005KT 33/18 A2995 RMK A01 T03340176  RH  039%=      5-min Rain = 0
KES1 021614Z 22004KT 33/18 A2995 RMK A01 T03340176  RH  039%=      5-min Rain = 0
KES1 021615Z 23007KT 33/18 A2995 RMK A01 T03340179  RH  040%=      5-min Rain = 0
KES1 021616Z 24005KT 34/18 A2995 RMK A01 T03370177  RH  039%=      5-min Rain = 0
KES1 021617Z 25006KT 34/18 A2995 RMK A01 T03370178  RH  039%=      5-min Rain = 0
KES1 021618Z 25006KT 34/18 A2995 RMK A01 T03360178  RH  039%=      5-min Rain = 0
KES1 021619Z 18007KT 34/18 A2995 RMK A01 T03380180  RH  039%=      5-min Rain = 0
KES1 021620Z 17005KT 34/18 A2995 RMK A01 T03400178  RH  038%=      5-min Rain = 0
KES1 021621Z 21003G9KT 34/18 A2995 RMK A01 T03410180  RH  039%=      5-min Rain = 0
KES1 021622Z 23007KT 34/18 A2995 RMK A01 T03430179  RH  038%=      5-min Rain = 0
KES1 021623Z 21005KT 34/18 A2995 RMK A01 T03430177  RH  037%=      5-min Rain = 0
KES1 021624Z 23005KT 34/18 A2995 RMK A01 T03400178  RH  038%=      5-min Rain = 0
KES1 021625Z 24006KT 34/18 A2995 RMK A01 T03420180  RH  038%=      5-min Rain = 0
KES1 021626Z 24007KT 34/18 A2995 RMK A01 T03440179  RH  038%=      5-min Rain = 0
KES1 021627Z 24006KT 34/18 A2995 RMK A01 T03430179  RH  038%=      5-min Rain = 0
KES1 021628Z 23009KT 34/18 A2995 RMK A01 T03420181  RH  039%=      5-min Rain = 0
KES1 021629Z 22006KT 34/18 A2995 RMK A01 T03420180  RH  038%=      5-min Rain = 0
KES1 021630Z 24007KT 34/18 A2995 RMK A01 T03440181  RH  038%=      5-min Rain = 0
KES1 021631Z 22004KT 35/18 A2995 RMK A01 T03450181  RH  038%=      5-min Rain = 0
KES1 021632Z 20005KT 35/18 A2995 RMK A01 T03480183  RH  038%=      5-min Rain = 0
KES1 021633Z 22009KT 35/18 A2995 RMK A01 T03500182  RH  037%=      5-min Rain = 0
KES1 021634Z 22007KT 35/18 A2995 RMK A01 T03470178  RH  037%=      5-min Rain = 0
KES1 021635Z 22003KT 34/18 A2995 RMK A01 T03440178  RH  038%=      5-min Rain = 0
KES1 021636Z 23003KT 34/18 A2995 RMK A01 T03440180  RH  038%=      5-min Rain = 0
KES1 021637Z 22005KT 35/18 A2995 RMK A01 T03480182  RH  038%=      5-min Rain = 0
KES1 021638Z 19007KT 35/18 A2995 RMK A01 T03490181  RH  037%=      5-min Rain = 0
KES1 021639Z 19007KT 35/18 A2995 RMK A01 T03470181  RH  037%=      5-min Rain = 0
KES1 021640Z 18007KT 35/18 A2995 RMK A01 T03470183  RH  038%=      5-min Rain = 0
KES1 021641Z 20006KT 35/18 A2995 RMK A01 T03480182  RH  038%=      5-min Rain = 0
KES1 021642Z 17003KT 35/18 A2995 RMK A01 T03480184  RH  038%=      5-min Rain = 0
KES1 021643Z 15007KT 35/18 A2995 RMK A01 T03480183  RH  038%=      5-min Rain = 0
KES1 021644Z 13006KT 35/19 A2995 RMK A01 T03500185  RH  038%=      5-min Rain = 0
KES1 021645Z 13009KT 35/19 A2995 RMK A01 T03520185  RH  037%=      5-min Rain = 0
KES1 021646Z 15008KT 35/19 A2995 RMK A01 T03540185  RH  037%=      5-min Rain = 0
KES1 021647Z 17007KT 36/18 A2995 RMK A01 T03550184  RH  037%=      5-min Rain = 0
KES1 021648Z 13006KT 35/18 A2995 RMK A01 T03520184  RH  037%=      5-min Rain = 0
KES1 021649Z 14006KT 35/18 A2995 RMK A01 T03520184  RH  037%=      5-min Rain = 0
KES1 021650Z 12005KT 35/18 A2995 RMK A01 T03520184  RH  037%=      5-min Rain = 0
KES1 021651Z 14007KT 35/19 A2995 RMK A01 T03520185  RH  037%=      5-min Rain = 0
KES1 021652Z 15008KT 35/18 A2995 RMK A01 T03520184  RH  037%=      5-min Rain = 0
KES1 021653Z 14009KT 35/19 A2995 RMK A01 T03520186  RH  037%=      5-min Rain = 0
KES1 021654Z 14008KT 36/19 A2995 RMK A01 T03550185  RH  037%=      5-min Rain = 0
KES1 021655Z 13007KT 36/18 A2995 RMK A01 T03560184  RH  036%=      5-min Rain = 0
KES1 021656Z 13005KT 35/18 A2995 RMK A01 T03540183  RH  037%=      5-min Rain = 0
KES1 021657Z 14004KT 35/18 A2995 RMK A01 T03510183  RH  037%=      5-min Rain = 0
KES1 021658Z 14004KT 35/19 A2995 RMK A01 T03520185  RH  037%=      5-min Rain = 0
KES1 021659Z 19003KT 36/19 A2995 RMK A01 T03560186  RH  037%=      5-min Rain = 0
KES1 021700Z 20003KT 36/18 A2995 RMK A01 T03560182  RH  036%=      5-min Rain = 0
KES1 021701Z 17005KT 35/18 A2995 RMK A01 T03540183  RH  037%=      5-min Rain = 0
KES1 021702Z 18006KT 35/18 A2995 RMK A01 T03530183  RH  037%=      5-min Rain = 0
KES1 021703Z 19005KT 35/18 A2995 RMK A01 T03530182  RH  037%=      5-min Rain = 0
KES1 021704Z 14006KT 35/19 A2995 RMK A01 T03520185  RH  037%=      5-min Rain = 0
KES1 021705Z 15007KT 35/18 A2995 RMK A01 T03540184  RH  037%=      5-min Rain = 0
KES1 021706Z 17008KT 36/18 A2995 RMK A01 T03560183  RH  036%=      5-min Rain = 0
KES1 021707Z 17006KT 36/18 A2995 RMK A01 T03560182  RH  036%=      5-min Rain = 0
KES1 021708Z 13007KT 36/18 A2995 RMK A01 T03550183  RH  036%=      5-min Rain = 0
KES1 021709Z 16006KT 36/18 A2995 RMK A01 T03560182  RH  036%=      5-min Rain = 0
KES1 021710Z 19009KT 36/18 A2995 RMK A01 T03570179  RH  035%=      5-min Rain = 0
KES1 021711Z 21005KT 35/18 A2995 RMK A01 T03520176  RH  035%=      5-min Rain = 0
KES1 021712Z 19009KT 35/18 A2995 RMK A01 T03500178  RH  036%=      5-min Rain = 0
KES1 021713Z 17007G12KT 35/18 A2995 RMK A01 T03520180  RH  036%=      5-min Rain = 0
KES1 021714Z 16007KT 36/18 A2995 RMK A01 T03560180  RH  035%=      5-min Rain = 0
KES1 021715Z 17006KT 36/18 A2995 RMK A01 T03580180  RH  035%=      5-min Rain = 0
KES1 021716Z 18006KT 36/18 A2995 RMK A01 T03580182  RH  036%=      5-min Rain = 0
KES1 021717Z 16010KT 36/18 A2995 RMK A01 T03570182  RH  036%=      5-min Rain = 0
KES1 021718Z 16009KT 36/18 A2995 RMK A01 T03570181  RH  036%=      5-min Rain = 0
KES1 021719Z 18008KT 36/18 A2995 RMK A01 T03580179  RH  035%=      5-min Rain = 0
KES1 021720Z 17005KT 36/18 A2995 RMK A01 T03580180  RH  035%=      5-min Rain = 0
KES1 021721Z 16005KT 36/18 A2995 RMK A01 T03580181  RH  035%=      5-min Rain = 0
KES1 021722Z 13005KT 36/18 A2995 RMK A01 T03590180  RH  035%=      5-min Rain = 0
KES1 021723Z 13003KT 36/18 A2995 RMK A01 T03600182  RH  035%=      5-min Rain = 0
KES1 021724Z 17006KT 36/18 A2995 RMK A01 T03630184  RH  035%=      5-min Rain = 0
KES1 021725Z 16005KT 36/18 A2995 RMK A01 T03620183  RH  035%=      5-min Rain = 0
KES1 021726Z 15006KT 36/18 A2995 RMK A01 T03610183  RH  035%=      5-min Rain = 0
KES1 021727Z 15009KT 36/18 A2995 RMK A01 T03610184  RH  035%=      5-min Rain = 0
KES1 021728Z 14009KT 36/18 A2995 RMK A01 T03620184  RH  035%=      5-min Rain = 0
KES1 021729Z 13007KT 36/18 A2995 RMK A01 T03610184  RH  035%=      5-min Rain = 0
KES1 021730Z 12007KT 36/18 A2995 RMK A01 T03590183  RH  036%=      5-min Rain = 0
KES1 021731Z 11008KT 35/18 A2995 RMK A01 T03540184  RH  037%=      5-min Rain = 0
KES1 021732Z 13009G14KT 35/19 A2995 RMK A01 T03540185  RH  037%=      5-min Rain = 0
KES1 021733Z 14009KT 36/19 A2995 RMK A01 T03560188  RH  037%=      5-min Rain = 0
KES1 021734Z 14013KT 36/19 A2995 RMK A01 T03620189  RH  036%=      5-min Rain = 0
KES1 021735Z 14012KT 36/19 A2995 RMK A01 T03630186  RH  035%=      5-min Rain = 0
KES1 021736Z 15009KT 36/19 A2995 RMK A01 T03620185  RH  035%=      5-min Rain = 0
KES1 021737Z 17007KT 36/18 A2995 RMK A01 T03600184  RH  035%=      5-min Rain = 0
KES1 021738Z 15008KT 36/19 A2995 RMK A01 T03590187  RH  036%=      5-min Rain = 0
KES1 021739Z 14011KT 36/19 A2995 RMK A01 T03610188  RH  036%=      5-min Rain = 0
KES1 021740Z 14011KT 36/19 A2995 RMK A01 T03620186  RH  035%=      5-min Rain = 0
KES1 021741Z 14012KT 36/19 A2995 RMK A01 T03610185  RH  036%=      5-min Rain = 0
KES1 021742Z 16008KT 36/19 A2995 RMK A01 T03620187  RH  036%=      5-min Rain = 0
KES1 021743Z 16008KT 36/18 A2995 RMK A01 T03630183  RH  035%=      5-min Rain = 0
KES1 021744Z 15009KT 36/18 A2995 RMK A01 T03620183  RH  035%=      5-min Rain = 0
KES1 021745Z 16009KT 36/19 A2995 RMK A01 T03620185  RH  035%=      5-min Rain = 0
KES1 021746Z 15011KT 36/19 A2995 RMK A01 T03620185  RH  035%=      5-min Rain = 0
KES1 021747Z 15010KT 36/18 A2995 RMK A01 T03620183  RH  035%=      5-min Rain = 0
KES1 021748Z 13010KT 36/18 A2995 RMK A01 T03600184  RH  036%=      5-min Rain = 0
KES1 021749Z 15011KT 36/18 A2995 RMK A01 T03590181  RH  035%=      5-min Rain = 0
KES1 021750Z 17009KT 36/18 A2995 RMK A01 T03580183  RH  036%=      5-min Rain = 0
KES1 021751Z 17008KT 36/18 A2995 RMK A01 T03590183  RH  036%=      5-min Rain = 0
KES1 021752Z 16008KT 36/18 A2995 RMK A01 T03580183  RH  036%=      5-min Rain = 0
KES1 021753Z 15007KT 36/18 A2995 RMK A01 T03600183  RH  035%=      5-min Rain = 0
KES1 021754Z 16006G11KT 36/19 A2995 RMK A01 T03640185  RH  035%=      5-min Rain = 0
KES1 021755Z 18007KT 37/19 A2995 RMK A01 T03680185  RH  034%=      5-min Rain = 0
KES1 021756Z 16006G12KT 37/19 A2995 RMK A01 T03670188  RH  035%=      5-min Rain = 0
KES1 021757Z 15008KT 37/19 A2995 RMK A01 T03680187  RH  035%=      5-min Rain = 0
KES1 021758Z 14013KT 37/19 A2995 RMK A01 T03670188  RH  035%=      5-min Rain = 0
KES1 021759Z 13010KT 37/19 A2995 RMK A01 T03660186  RH  035%=      5-min Rain = 0
KES1 021800Z 12009KT 36/19 A2995 RMK A01 T03640185  RH  035%=      5-min Rain = 0
KES1 021801Z 11006KT 36/19 A2995 RMK A01 T03610185  RH  035%=      5-min Rain = 0
KES1 021802Z 11007KT 36/19 A2995 RMK A01 T03610185  RH  036%=      5-min Rain = 0
KES1 021803Z 12008KT 36/19 A2995 RMK A01 T03630188  RH  036%=      5-min Rain = 0
KES1 021804Z 14010KT 37/19 A2995 RMK A01 T03660185  RH  035%=      5-min Rain = 0
KES1 021805Z 15007KT 37/19 A2995 RMK A01 T03670187  RH  035%=      5-min Rain = 0
KES1 021806Z 14010KT 37/19 A2995 RMK A01 T03700186  RH  034%=      5-min Rain = 0
KES1 021807Z 14008KT 37/19 A2995 RMK A01 T03690185  RH  034%=      5-min Rain = 0
KES1 021808Z 13011KT 37/18 A2995 RMK A01 T03680183  RH  034%=      5-min Rain = 0
KES1 021809Z 12007KT 37/18 A2994 RMK A01 T03680183  RH  034%=      5-min Rain = 0
KES1 021810Z 13007KT 37/18 A2994 RMK A01 T03680184  RH  034%=      5-min Rain = 0
KES1 021811Z 14008KT 37/19 A2994 RMK A01 T03690186  RH  034%=      5-min Rain = 0
KES1 021812Z 17007KT 37/19 A2994 RMK A01 T03720189  RH  034%=      5-min Rain = 0
KES1 021813Z 20005KT 37/19 A2994 RMK A01 T03740185  RH  033%=      5-min Rain = 0
KES1 021814Z 18003KT 37/19 A2994 RMK A01 T03700187  RH  034%=      5-min Rain = 0
KES1 021815Z 15007G12KT 37/19 A2994 RMK A01 T03700188  RH  035%=      5-min Rain = 0
KES1 021816Z 14008KT 37/19 A2994 RMK A01 T03710188  RH  034%=      5-min Rain = 0
KES1 021817Z 17008KT 37/19 A2994 RMK A01 T03720189  RH  034%=      5-min Rain = 0
KES1 021818Z 15007KT 37/19 A2994 RMK A01 T03740191  RH  034%=      5-min Rain = 0
KES1 021819Z 18006KT 38/19 A2994 RMK A01 T03750188  RH  034%=      5-min Rain = 0
KES1 021820Z 16008KT 37/19 A2994 RMK A01 T03720185  RH  033%=      5-min Rain = 0
KES1 021821Z 12009G14KT 37/19 A2994 RMK A01 T03690186  RH  034%=      5-min Rain = 0
KES1 021822Z 14014KT 37/19 A2994 RMK A01 T03700187  RH  034%=      5-min Rain = 0
KES1 021823Z 14010KT 37/19 A2994 RMK A01 T03710186  RH  034%=      5-min Rain = 0
KES1 021824Z 12010KT 37/19 A2994 RMK A01 T03720188  RH  034%=      5-min Rain = 0
KES1 021825Z 13011KT 37/19 A2994 RMK A01 T03720187  RH  034%=      5-min Rain = 0
KES1 021826Z 13012KT 37/19 A2994 RMK A01 T03720186  RH  034%=      5-min Rain = 0
KES1 021827Z 12008KT 37/18 A2994 RMK A01 T03710184  RH  033%=      5-min Rain = 0
KES1 021828Z 12012KT 37/18 A2994 RMK A01 T03700184  RH  034%=      5-min Rain = 0
KES1 021829Z 12008KT 37/18 A2994 RMK A01 T03670183  RH  034%=      5-min Rain = 0
KES1 021830Z 13007KT 37/19 A2994 RMK A01 T03680185  RH  034%=      5-min Rain = 0
KES1 021831Z 14004KT 37/18 A2994 RMK A01 T03690183  RH  034%=      5-min Rain = 0
KES1 021832Z 12010G17KT 37/19 A2994 RMK A01 T03690188  RH  035%=      5-min Rain = 0
KES1 021833Z 14014KT 37/19 A2994 RMK A01 T03720186  RH  034%=      5-min Rain = 0
KES1 021834Z 15013KT 37/18 A2994 RMK A01 T03730183  RH  033%=      5-min Rain = 0
KES1 021835Z 15009KT 37/18 A2994 RMK A01 T03710183  RH  033%=      5-min Rain = 0
KES1 021836Z 14010KT 37/19 A2994 RMK A01 T03720186  RH  034%=      5-min Rain = 0
KES1 021837Z 12005KT 37/19 A2994 RMK A01 T03710185  RH  034%=      5-min Rain = 0
KES1 021838Z 13006KT 37/19 A2994 RMK A01 T03690187  RH  034%=      5-min Rain = 0
KES1 021839Z 16007KT 37/19 A2994 RMK A01 T03710187  RH  034%=      5-min Rain = 0
KES1 021840Z 15010KT 38/19 A2994 RMK A01 T03750188  RH  034%=      5-min Rain = 0
KES1 021841Z 17007KT 38/19 A2994 RMK A01 T03760188  RH  033%=      5-min Rain = 0
KES1 021842Z 19007G14KT 38/19 A2994 RMK A01 T03770188  RH  033%=      5-min Rain = 0
KES1 021843Z 19011KT 38/18 A2993 RMK A01 T03770183  RH  032%=      5-min Rain = 0
KES1 021844Z 19010KT 37/18 A2994 RMK A01 T03740181  RH  032%=      5-min Rain = 0
KES1 021845Z 18007KT 37/18 A2993 RMK A01 T03740179  RH  032%=      5-min Rain = 0
KES1 021846Z 17008KT 38/18 A2993 RMK A01 T03760180  RH  032%=      5-min Rain = 0
KES1 021847Z 19008KT 38/18 A2993 RMK A01 T03790178  RH  031%=      5-min Rain = 0
KES1 021848Z 20006KT 38/18 A2993 RMK A01 T03780177  RH  031%=      5-min Rain = 0
KES1 021849Z 17010G16KT 38/18 A2993 RMK A01 T03750180  RH  032%=      5-min Rain = 0
KES1 021850Z 16009KT 38/19 A2993 RMK A01 T03750185  RH  033%=      5-min Rain = 0
KES1 021851Z 16011KT 38/19 A2993 RMK A01 T03780185  RH  032%=      5-min Rain = 0
KES1 021852Z 14010KT 38/18 A2993 RMK A01 T03780184  RH  032%=      5-min Rain = 0
KES1 021853Z 15006G12KT 38/18 A2993 RMK A01 T03770181  RH  032%=      5-min Rain = 0
KES1 021854Z 14014KT 38/18 A2993 RMK A01 T03750181  RH  032%=      5-min Rain = 0
KES1 021855Z 14014KT 38/18 A2993 RMK A01 T03750180  RH  032%=      5-min Rain = 0
KES1 021856Z 14013KT 38/18 A2993 RMK A01 T03750178  RH  031%=      5-min Rain = 0
KES1 021857Z 14009KT 37/18 A2993 RMK A01 T03740180  RH  032%=      5-min Rain = 0
KES1 021858Z 15009KT 38/18 A2993 RMK A01 T03770182  RH  032%=      5-min Rain = 0
KES1 021859Z 13009KT 38/18 A2993 RMK A01 T03780178  RH  031%=      5-min Rain = 0
KES1 021900Z 14007KT 38/18 A2993 RMK A01 T03780178  RH  031%=      5-min Rain = 0
KES1 021901Z 15013KT 38/18 A2993 RMK A01 T03800179  RH  031%=      5-min Rain = 0
KES1 021902Z 15009KT 38/18 A2993 RMK A01 T03770179  RH  031%=      5-min Rain = 0
KES1 021903Z 13007KT 37/18 A2993 RMK A01 T03740182  RH  033%=      5-min Rain = 0
KES1 021904Z 14012KT 37/18 A2993 RMK A01 T03730182  RH  033%=      5-min Rain = 0
KES1 021905Z 18011KT 38/18 A2993 RMK A01 T03750182  RH  032%=      5-min Rain = 0
KES1 021906Z 16012G17KT 38/18 A2993 RMK A01 T03770181  RH  032%=      5-min Rain = 0
KES1 021907Z 14012KT 38/18 A2993 RMK A01 T03780179  RH  031%=      5-min Rain = 0
KES1 021908Z 15008KT 38/18 A2993 RMK A01 T03780181  RH  032%=      5-min Rain = 0
KES1 021909Z 14010G15KT 38/18 A2993 RMK A01 T03820179  RH  031%=      5-min Rain = 0
KES1 021910Z 16011KT 38/18 A2993 RMK A01 T03840181  RH  031%=      5-min Rain = 0
KES1 021911Z 16011KT 39/18 A2993 RMK A01 T03850178  RH  030%=      5-min Rain = 0
KES1 021912Z 17005KT 38/18 A2993 RMK A01 T03800178  RH  031%=      5-min Rain = 0
KES1 021913Z 18008KT 38/18 A2993 RMK A01 T03780180  RH  031%=      5-min Rain = 0
KES1 021914Z 16005KT 38/18 A2993 RMK A01 T03760179  RH  032%=      5-min Rain = 0
KES1 021915Z 17005KT 37/18 A2993 RMK A01 T03740181  RH  032%=      5-min Rain = 0
KES1 021916Z 15009KT 38/18 A2993 RMK A01 T03750182  RH  032%=      5-min Rain = 0
KES1 021917Z 17008KT 38/18 A2993 RMK A01 T03770182  RH  032%=      5-min Rain = 0
KES1 021918Z 16011KT 38/18 A2993 RMK A01 T03770179  RH  031%=      5-min Rain = 0
KES1 021919Z 15011KT 38/18 A2993 RMK A01 T03760178  RH  032%=      5-min Rain = 0
KES1 021920Z 16010KT 38/18 A2993 RMK A01 T03760177  RH  031%=      5-min Rain = 0
KES1 021921Z 15013KT 38/18 A2993 RMK A01 T03760178  RH  031%=      5-min Rain = 0
KES1 021922Z 16011KT 38/17 A2993 RMK A01 T03770174  RH  030%=      5-min Rain = 0
KES1 021923Z 16007KT 37/17 A2993 RMK A01 T03740172  RH  031%=      5-min Rain = 0
KES1 021924Z 15008G13KT 37/17 A2993 RMK A01 T03720174  RH  031%=      5-min Rain = 0
KES1 021925Z 15011KT 37/18 A2993 RMK A01 T03730182  RH  033%=      5-min Rain = 0
KES1 021926Z 14008KT 38/18 A2993 RMK A01 T03750183  RH  033%=      5-min Rain = 0
KES1 021927Z 17009KT 38/19 A2993 RMK A01 T03760186  RH  033%=      5-min Rain = 0
KES1 021928Z 19011KT 38/18 A2993 RMK A01 T03800183  RH  032%=      5-min Rain = 0
KES1 021929Z 15007KT 38/18 A2993 RMK A01 T03790184  RH  032%=      5-min Rain = 0
KES1 021930Z 16009G16KT 38/19 A2993 RMK A01 T03800185  RH  032%=      5-min Rain = 0
KES1 021931Z 15014KT 38/18 A2993 RMK A01 T03830183  RH  031%=      5-min Rain = 0
KES1 021932Z 15012KT 38/18 A2993 RMK A01 T03800184  RH  032%=      5-min Rain = 0
KES1 021933Z 15008KT 38/18 A2992 RMK A01 T03770182  RH  032%=      5-min Rain = 0
KES1 021934Z 14011KT 38/18 A2992 RMK A01 T03750183  RH  033%=      5-min Rain = 0
KES1 021935Z 16007KT 38/18 A2992 RMK A01 T03750183  RH  033%=      5-min Rain = 0
KES1 021936Z 15009KT 38/18 A2992 RMK A01 T03760184  RH  033%=      5-min Rain = 0
KES1 021937Z 19012KT 38/18 A2992 RMK A01 T03790183  RH  032%=      5-min Rain = 0
KES1 021938Z 19007KT 38/18 A2992 RMK A01 T03800181  RH  031%=      5-min Rain = 0
KES1 021939Z 19006KT 38/18 A2992 RMK A01 T03790182  RH  032%=      5-min Rain = 0
KES1 021940Z 15010G15KT 38/18 A2992 RMK A01 T03810183  RH  031%=      5-min Rain = 0
KES1 021941Z 15014KT 38/18 A2992 RMK A01 T03830183  RH  031%=      5-min Rain = 0
KES1 021942Z 14013KT 38/18 A2992 RMK A01 T03840182  RH  031%=      5-min Rain = 0
KES1 021943Z 15013KT 38/18 A2992 RMK A01 T03830181  RH  031%=      5-min Rain = 0
KES1 021944Z 16011KT 38/18 A2992 RMK A01 T03800179  RH  031%=      5-min Rain = 0
KES1 021945Z 18011KT 38/18 A2992 RMK A01 T03790181  RH  031%=      5-min Rain = 0
KES1 021946Z 17010KT 38/18 A2992 RMK A01 T03800182  RH  031%=      5-min Rain = 0
KES1 021947Z 17008KT 38/18 A2992 RMK A01 T03810182  RH  031%=      5-min Rain = 0
KES1 021948Z 15009KT 38/18 A2992 RMK A01 T03800182  RH  032%=      5-min Rain = 0
KES1 021949Z 15010KT 38/18 A2992 RMK A01 T03780182  RH  032%=      5-min Rain = 0
KES1 021950Z 16007KT 38/18 A2992 RMK A01 T03760181  RH  032%=      5-min Rain = 0
KES1 021951Z 14010KT 38/18 A2992 RMK A01 T03770181  RH  032%=      5-min Rain = 0
KES1 021952Z 14012KT 38/18 A2992 RMK A01 T03770181  RH  032%=      5-min Rain = 0
KES1 021953Z 14010KT 38/18 A2992 RMK A01 T03770180  RH  032%=      5-min Rain = 0
KES1 021954Z 15009KT 38/18 A2992 RMK A01 T03760182  RH  032%=      5-min Rain = 0
KES1 021955Z 16010KT 38/18 A2992 RMK A01 T03800182  RH  032%=      5-min Rain = 0
KES1 021956Z 16012KT 38/18 A2992 RMK A01 T03830182  RH  031%=      5-min Rain = 0
KES1 021957Z 18012KT 38/18 A2992 RMK A01 T03840181  RH  031%=      5-min Rain = 0
KES1 021958Z 19010KT 38/18 A2992 RMK A01 T03820179  RH  031%=      5-min Rain = 0
KES1 021959Z 17007KT 38/18 A2991 RMK A01 T03810179  RH  031%=      5-min Rain = 0
KES1 022000Z 13011G17KT 38/18 A2992 RMK A01 T03810178  RH  031%=      5-min Rain = 0
KES1 022001Z 14012G17KT 38/17 A2991 RMK A01 T03810171  RH  029%=      5-min Rain = 0
KES1 022002Z 12008KT 38/17 A2991 RMK A01 T03810171  RH  029%=      5-min Rain = 0
KES1 022003Z 14011KT 38/17 A2991 RMK A01 T03810172  RH  029%=      5-min Rain = 0
KES1 022004Z 13012KT 38/18 A2991 RMK A01 T03810175  RH  030%=      5-min Rain = 0
KES1 022005Z 13008KT 38/18 A2991 RMK A01 T03820179  RH  031%=      5-min Rain = 0
KES1 022006Z 13011KT 38/18 A2991 RMK A01 T03840182  RH  031%=      5-min Rain = 0
KES1 022007Z 13010KT 39/18 A2991 RMK A01 T03860182  RH  030%=      5-min Rain = 0
KES1 022008Z 12012KT 39/18 A2991 RMK A01 T03860182  RH  031%=      5-min Rain = 0
KES1 022009Z 14008KT 39/18 A2991 RMK A01 T03850183  RH  031%=      5-min Rain = 0
KES1 022010Z 14009KT 39/18 A2991 RMK A01 T03870183  RH  031%=      5-min Rain = 0
KES1 022011Z 13013KT 39/18 A2991 RMK A01 T03900183  RH  030%=      5-min Rain = 0
KES1 022012Z 12014G19KT 39/18 A2991 RMK A01 T03870176  RH  029%=      5-min Rain = 0
KES1 022013Z 14011G16KT 38/18 A2991 RMK A01 T03820178  RH  030%=      5-min Rain = 0
KES1 022014Z 13013KT 38/18 A2991 RMK A01 T03830180  RH  031%=      5-min Rain = 0
KES1 022015Z 15012G17KT 38/18 A2991 RMK A01 T03840181  RH  031%=      5-min Rain = 0
KES1 022016Z 16011KT 39/18 A2991 RMK A01 T03850180  RH  030%=      5-min Rain = 0
KES1 022017Z 17008G14KT 38/18 A2991 RMK A01 T03840179  RH  030%=      5-min Rain = 0
KES1 022018Z 15012KT 38/18 A2991 RMK A01 T03820178  RH  030%=      5-min Rain = 0
KES1 022019Z 13011KT 38/18 A2991 RMK A01 T03810178  RH  031%=      5-min Rain = 0
KES1 022020Z 14013KT 38/18 A2991 RMK A01 T03810179  RH  031%=      5-min Rain = 0
KES1 022021Z 15011KT 38/18 A2991 RMK A01 T03810177  RH  030%=      5-min Rain = 0
KES1 022022Z 15008KT 38/18 A2991 RMK A01 T03800178  RH  031%=      5-min Rain = 0
KES1 022023Z 14011KT 38/18 A2991 RMK A01 T03790180  RH  031%=      5-min Rain = 0
KES1 022024Z 15010KT 38/18 A2991 RMK A01 T03800180  RH  031%=      5-min Rain = 0
KES1 022025Z 16010KT 38/17 A2991 RMK A01 T03830174  RH  030%=      5-min Rain = 0
KES1 022026Z 15010KT 38/17 A2991 RMK A01 T03830173  RH  029%=      5-min Rain = 0
KES1 022027Z 15012G17KT 38/17 A2991 RMK A01 T03840173  RH  029%=      5-min Rain = 0
KES1 022028Z 16015KT 39/17 A2991 RMK A01 T03850165  RH  028%=      5-min Rain = 0
KES1 022029Z 16012G17KT 39/16 A2991 RMK A01 T03850163  RH  027%=      5-min Rain = 0
KES1 022030Z 16010KT 38/17 A2991 RMK A01 T03830166  RH  028%=      5-min Rain = 0
KES1 022031Z 16010KT 38/17 A299 RMK A01 T03820170  RH  029%=      5-min Rain = 0
KES1 022032Z 16009KT 38/18 A299 RMK A01 T03830176  RH  030%=      5-min Rain = 0
KES1 022033Z 14009KT 39/18 A299 RMK A01 T03870180  RH  030%=      5-min Rain = 0
KES1 022034Z 13008KT 39/18 A299 RMK A01 T03870180  RH  030%=      5-min Rain = 0
KES1 022035Z 15007KT 39/18 A299 RMK A01 T03860181  RH  030%=      5-min Rain = 0
KES1 022036Z 16009KT 39/18 A299 RMK A01 T03860180  RH  030%=      5-min Rain = 0
KES1 022037Z 16010G15KT 38/18 A299 RMK A01 T03840181  RH  031%=      5-min Rain = 0
KES1 022038Z 14016KT 38/18 A299 RMK A01 T03830181  RH  031%=      5-min Rain = 0
KES1 022039Z 13012KT 38/18 A299 RMK A01 T03800181  RH  031%=      5-min Rain = 0
KES1 022040Z 12011KT 38/18 A299 RMK A01 T03790180  RH  031%=      5-min Rain = 0
KES1 022041Z 15009KT 38/18 A299 RMK A01 T03800180  RH  031%=      5-min Rain = 0
KES1 022042Z 14009KT 38/18 A299 RMK A01 T03840181  RH  031%=      5-min Rain = 0
KES1 022043Z 16014KT 39/18 A299 RMK A01 T03880176  RH  029%=      5-min Rain = 0
KES1 022044Z 17012KT 39/18 A299 RMK A01 T03860175  RH  029%=      5-min Rain = 0
KES1 022045Z 17009KT 39/17 A299 RMK A01 T03860174  RH  029%=      5-min Rain = 0
KES1 022046Z 15010KT 39/18 A299 RMK A01 T03880177  RH  029%=      5-min Rain = 0
KES1 022047Z 15012KT 39/18 A299 RMK A01 T03890177  RH  029%=      5-min Rain = 0
KES1 022048Z 13014KT 39/18 A299 RMK A01 T03870178  RH  030%=      5-min Rain = 0
KES1 022049Z 13009KT 38/18 A299 RMK A01 T03840180  RH  030%=      5-min Rain = 0
KES1 022050Z 13007KT 38/18 A299 RMK A01 T03830179  RH  031%=      5-min Rain = 0
KES1 022051Z 14012G17KT 38/18 A299 RMK A01 T03820181  RH  031%=      5-min Rain = 0
KES1 022052Z 12012KT 38/18 A299 RMK A01 T03830181  RH  031%=      5-min Rain = 0
KES1 022053Z 14011KT 38/18 A299 RMK A01 T03820179  RH  031%=      5-min Rain = 0
KES1 022054Z 12010KT 38/18 A299 RMK A01 T03810182  RH  031%=      5-min Rain = 0
KES1 022055Z 14015KT 38/18 A299 RMK A01 T03830181  RH  031%=      5-min Rain = 0
KES1 022056Z 15012KT 38/18 A299 RMK A01 T03840180  RH  030%=      5-min Rain = 0
KES1 022057Z 16012KT 38/18 A299 RMK A01 T03840178  RH  030%=      5-min Rain = 0
KES1 022058Z 16010KT 38/18 A299 RMK A01 T03840178  RH  030%=      5-min Rain = 0
KES1 022059Z 17013KT 39/18 A299 RMK A01 T03880178  RH  029%=      5-min Rain = 0
KES1 022100Z 17012KT 39/18 A299 RMK A01 T03890175  RH  029%=      5-min Rain = 0
KES1 022101Z 16014KT 39/18 A299 RMK A01 T03870177  RH  029%=      5-min Rain = 0
KES1 022102Z 17010KT 39/18 A299 RMK A01 T03860180  RH  030%=      5-min Rain = 0
KES1 022103Z 15010KT 39/18 A299 RMK A01 T03860182  RH  030%=      5-min Rain = 0
KES1 022104Z 16012KT 39/18 A299 RMK A01 T03850182  RH  031%=      5-min Rain = 0
KES1 022105Z 13012G17KT 39/18 A299 RMK A01 T03860182  RH  030%=      5-min Rain = 0
KES1 022106Z 12010KT 39/18 A299 RMK A01 T03850181  RH  030%=      5-min Rain = 0
KES1 022107Z 14012KT 38/18 A299 RMK A01 T03840183  RH  031%=      5-min Rain = 0
KES1 022108Z 13015KT 38/18 A299 RMK A01 T03840183  RH  031%=      5-min Rain = 0
KES1 022109Z 13014KT 39/18 A299 RMK A01 T03850183  RH  031%=      5-min Rain = 0
KES1 022110Z 12014KT 39/18 A299 RMK A01 T03850183  RH  031%=      5-min Rain = 0
KES1 022111Z 12014KT 38/18 A2989 RMK A01 T03820181  RH  031%=      5-min Rain = 0
KES1 022112Z 12012KT 38/18 A2989 RMK A01 T03790181  RH  031%=      5-min Rain = 0
KES1 022113Z 13017KT 38/18 A299 RMK A01 T03800184  RH  032%=      5-min Rain = 0
KES1 022114Z 13016KT 38/18 A299 RMK A01 T03810181  RH  031%=      5-min Rain = 0
KES1 022115Z 14011G17KT 38/18 A299 RMK A01 T03810182  RH  031%=      5-min Rain = 0
KES1 022116Z 14013KT 38/18 A299 RMK A01 T03820181  RH  031%=      5-min Rain = 0
KES1 022117Z 14011KT 38/18 A299 RMK A01 T03830182  RH  031%=      5-min Rain = 0
KES1 022118Z 14011KT 38/18 A299 RMK A01 T03840181  RH  031%=      5-min Rain = 0
KES1 022119Z 15015KT 38/18 A299 RMK A01 T03820180  RH  031%=      5-min Rain = 0
KES1 022120Z 14007G12KT 38/18 A2989 RMK A01 T03820180  RH  031%=      5-min Rain = 0
KES1 022121Z 13010KT 38/18 A2989 RMK A01 T03840183  RH  031%=      5-min Rain = 0
KES1 022122Z 14013KT 39/18 A2989 RMK A01 T03860181  RH  030%=      5-min Rain = 0
KES1 022123Z 14011KT 38/18 A2989 RMK A01 T03840182  RH  031%=      5-min Rain = 0
KES1 022124Z 13011KT 39/18 A2989 RMK A01 T03850182  RH  030%=      5-min Rain = 0
KES1 022125Z 13011KT 39/18 A2989 RMK A01 T03860179  RH  030%=      5-min Rain = 0
KES1 022126Z 14015G20KT 39/18 A2989 RMK A01 T03860178  RH  030%=      5-min Rain = 0
KES1 022127Z 14013KT 39/18 A2989 RMK A01 T03860176  RH  029%=      5-min Rain = 0
KES1 022128Z 15015KT 38/18 A2989 RMK A01 T03840177  RH  030%=      5-min Rain = 0
KES1 022129Z 14016KT 38/18 A2989 RMK A01 T03830178  RH  030%=      5-min Rain = 0
KES1 022130Z 14014KT 38/18 A299 RMK A01 T03820176  RH  030%=      5-min Rain = 0
KES1 022131Z 15010KT 38/17 A299 RMK A01 T03800172  RH  029%=      5-min Rain = 0
KES1 022132Z 16010KT 38/17 A299 RMK A01 T03830173  RH  029%=      5-min Rain = 0
KES1 022133Z 16010KT 39/17 A2989 RMK A01 T03850174  RH  029%=      5-min Rain = 0
KES1 022134Z 14010KT 39/18 A2989 RMK A01 T03860177  RH  030%=      5-min Rain = 0
KES1 022135Z 14016KT 38/18 A2989 RMK A01 T03840177  RH  030%=      5-min Rain = 0
KES1 022136Z 13014G20KT 38/18 A2989 RMK A01 T03830177  RH  030%=      5-min Rain = 0
KES1 022137Z 15012KT 38/18 A2989 RMK A01 T03820178  RH  030%=      5-min Rain = 0
KES1 022138Z 15013KT 38/18 A2989 RMK A01 T03840178  RH  030%=      5-min Rain = 0
KES1 022139Z 15014KT 38/18 A2989 RMK A01 T03840175  RH  030%=      5-min Rain = 0
KES1 022140Z 14013G18KT 38/18 A299 RMK A01 T03820176  RH  030%=      5-min Rain = 0
KES1 022141Z 15013KT 38/18 A299 RMK A01 T03840175  RH  030%=      5-min Rain = 0
KES1 022142Z 14013KT 38/17 A299 RMK A01 T03840173  RH  029%=      5-min Rain = 0
KES1 022143Z 14010KT 38/17 A299 RMK A01 T03820173  RH  030%=      5-min Rain = 0
KES1 022144Z 15012KT 38/18 A299 RMK A01 T03800176  RH  030%=      5-min Rain = 0
KES1 022145Z 16009KT 38/17 A299 RMK A01 T03810174  RH  030%=      5-min Rain = 0
KES1 022146Z 16006KT 38/17 A299 RMK A01 T03800173  RH  030%=      5-min Rain = 0
KES1 022147Z 13007KT 38/18 A299 RMK A01 T03790175  RH  030%=      5-min Rain = 0
KES1 022148Z 13008KT 38/18 A299 RMK A01 T03810177  RH  030%=      5-min Rain = 0
KES1 022149Z 14010KT 38/18 A299 RMK A01 T03820177  RH  030%=      5-min Rain = 0
KES1 022150Z 16009G16KT 38/18 A299 RMK A01 T03840179  RH  030%=      5-min Rain = 0
KES1 022151Z 15014KT 38/18 A299 RMK A01 T03840180  RH  030%=      5-min Rain = 0
KES1 022152Z 13012KT 38/18 A2989 RMK A01 T03840181  RH  031%=      5-min Rain = 0
KES1 022153Z 12010KT 39/18 A2989 RMK A01 T03850182  RH  031%=      5-min Rain = 0
KES1 022154Z 14012KT 38/18 A2989 RMK A01 T03840184  RH  031%=      5-min Rain = 0
KES1 022155Z 14011KT 38/18 A2989 RMK A01 T03840184  RH  031%=      5-min Rain = 0
KES1 022156Z 14011KT 38/18 A2989 RMK A01 T03830184  RH  031%=      5-min Rain = 0
KES1 022157Z 14011KT 38/18 A2989 RMK A01 T03820180  RH  031%=      5-min Rain = 0
KES1 022158Z 12011G17KT 38/18 A2989 RMK A01 T03820181  RH  031%=      5-min Rain = 0
KES1 022159Z 12013KT 38/18 A2989 RMK A01 T03820179  RH  031%=      5-min Rain = 0
KES1 022200Z 11013G18KT 38/18 A2989 RMK A01 T03800179  RH  031%=      5-min Rain = 0
KES1 022201Z 12014KT 38/18 A2989 RMK A01 T03780180  RH  031%=      5-min Rain = 0
KES1 022202Z 13016KT 38/18 A2989 RMK A01 T03780181  RH  032%=      5-min Rain = 0
KES1 022203Z 14016KT 38/18 A2989 RMK A01 T03800180  RH  031%=      5-min Rain = 0
KES1 022204Z 14016KT 38/18 A2989 RMK A01 T03800177  RH  030%=      5-min Rain = 0
KES1 022205Z 14014KT 38/18 A2989 RMK A01 T03790177  RH  031%=      5-min Rain = 0
KES1 022206Z 14012KT 38/18 A2989 RMK A01 T03790177  RH  031%=      5-min Rain = 0
KES1 022207Z 14009KT 38/18 A2989 RMK A01 T03790179  RH  031%=      5-min Rain = 0
KES1 022208Z 13011KT 38/18 A2989 RMK A01 T03820181  RH  031%=      5-min Rain = 0
KES1 022209Z 13010KT 38/18 A2989 RMK A01 T03840179  RH  030%=      5-min Rain = 0
KES1 022210Z 14010KT 38/18 A2989 RMK A01 T03830180  RH  031%=      5-min Rain = 0
KES1 022211Z 14010KT 38/18 A2989 RMK A01 T03810177  RH  030%=      5-min Rain = 0
KES1 022212Z 14010KT 38/18 A2989 RMK A01 T03770179  RH  031%=      5-min Rain = 0
KES1 022213Z 13011KT 38/18 A2989 RMK A01 T03760180  RH  032%=      5-min Rain = 0
KES1 022214Z 15012KT 38/18 A2989 RMK A01 T03770180  RH  032%=      5-min Rain = 0
KES1 022215Z 16014KT 38/18 A2989 RMK A01 T03770179  RH  032%=      5-min Rain = 0
KES1 022216Z 15016KT 38/18 A2989 RMK A01 T03760179  RH  032%=      5-min Rain = 0
KES1 022217Z 14012G19KT 37/18 A2989 RMK A01 T03740179  RH  032%=      5-min Rain = 0
KES1 022218Z 15013KT 37/18 A2989 RMK A01 T03740181  RH  032%=      5-min Rain = 0
KES1 022219Z 14013KT 38/18 A2989 RMK A01 T03760183  RH  032%=      5-min Rain = 0
KES1 022220Z 15012KT 38/18 A2989 RMK A01 T03760183  RH  032%=      5-min Rain = 0
KES1 022221Z 15011KT 38/18 A2989 RMK A01 T03770183  RH  032%=      5-min Rain = 0
KES1 022222Z 14014KT 38/18 A2989 RMK A01 T03780184  RH  032%=      5-min Rain = 0
KES1 022223Z 16010KT 38/18 A2989 RMK A01 T03790183  RH  032%=      5-min Rain = 0
KES1 022224Z 17011G16KT 38/18 A2989 RMK A01 T03800182  RH  032%=      5-min Rain = 0
KES1 022225Z 16009KT 38/18 A2989 RMK A01 T03800181  RH  031%=      5-min Rain = 0
KES1 022226Z 15011G16KT 38/18 A2989 RMK A01 T03800183  RH  032%=      5-min Rain = 0
KES1 022227Z 14015KT 38/18 A2989 RMK A01 T03820181  RH  031%=      5-min Rain = 0
KES1 022228Z 14014KT 38/18 A2989 RMK A01 T03820182  RH  031%=      5-min Rain = 0
KES1 022229Z 15010KT 38/18 A2989 RMK A01 T03800180  RH  031%=      5-min Rain = 0
KES1 022230Z 15012KT 38/18 A2989 RMK A01 T03790182  RH  032%=      5-min Rain = 0
KES1 022231Z 15012KT 38/18 A2989 RMK A01 T03800182  RH  031%=      5-min Rain = 0
KES1 022232Z 14014KT 38/18 A2989 RMK A01 T03800182  RH  031%=      5-min Rain = 0
KES1 022233Z 14014KT 38/18 A2989 RMK A01 T03800183  RH  032%=      5-min Rain = 0
KES1 022234Z 14015KT 38/18 A2989 RMK A01 T03800183  RH  032%=      5-min Rain = 0
KES1 022235Z 14012G17KT 38/19 A2989 RMK A01 T03780185  RH  032%=      5-min Rain = 0
KES1 022236Z 15014KT 38/19 A2989 RMK A01 T03770186  RH  033%=      5-min Rain = 0
KES1 022237Z 16012G17KT 38/19 A2989 RMK A01 T03770185  RH  033%=      5-min Rain = 0
KES1 022238Z 15010KT 38/19 A2989 RMK A01 T03760186  RH  033%=      5-min Rain = 0
KES1 022239Z 15011KT 38/19 A2989 RMK A01 T03770187  RH  033%=      5-min Rain = 0
KES1 022240Z 15012G17KT 38/19 A2989 RMK A01 T03780187  RH  033%=      5-min Rain = 0
KES1 022241Z 16012G18KT 38/19 A2989 RMK A01 T03770187  RH  033%=      5-min Rain = 0
KES1 022242Z 15015KT 38/19 A2989 RMK A01 T03770188  RH  033%=      5-min Rain = 0
KES1 022243Z 15014G19KT 38/19 A2989 RMK A01 T03760188  RH  033%=      5-min Rain = 0
KES1 022244Z 14014KT 38/19 A2989 RMK A01 T03760188  RH  033%=      5-min Rain = 0
KES1 022245Z 14011KT 38/19 A2989 RMK A01 T03750188  RH  033%=      5-min Rain = 0
KES1 022246Z 15012KT 38/19 A2989 RMK A01 T03750187  RH  033%=      5-min Rain = 0
KES1 022247Z 15011KT 38/19 A2989 RMK A01 T03760188  RH  033%=      5-min Rain = 0
KES1 022248Z 16013KT 38/19 A2989 RMK A01 T03760186  RH  033%=      5-min Rain = 0
KES1 022249Z 16014KT 38/18 A2989 RMK A01 T03750184  RH  033%=      5-min Rain = 0
KES1 022250Z 16015KT 37/18 A2989 RMK A01 T03720181  RH  033%=      5-min Rain = 0
KES1 022251Z 15013KT 37/18 A299 RMK A01 T03710184  RH  033%=      5-min Rain = 0
KES1 022252Z 15013KT 37/19 A2989 RMK A01 T03720185  RH  034%=      5-min Rain = 0
KES1 022253Z 15011KT 37/19 A2989 RMK A01 T03720187  RH  034%=      5-min Rain = 0
KES1 022254Z 14016KT 37/19 A2989 RMK A01 T03730186  RH  034%=      5-min Rain = 0
KES1 022255Z 13012G17KT 37/19 A2989 RMK A01 T03720186  RH  034%=      5-min Rain = 0
KES1 022256Z 15012KT 37/19 A299 RMK A01 T03730186  RH  034%=      5-min Rain = 0
KES1 022257Z 15017KT 37/19 A299 RMK A01 T03730185  RH  033%=      5-min Rain = 0
KES1 022258Z 14017KT 37/18 A2989 RMK A01 T03720184  RH  033%=      5-min Rain = 0
KES1 022259Z 15016KT 37/18 A2989 RMK A01 T03710183  RH  033%=      5-min Rain = 0
KES1 022300Z 14017KT 37/18 A2989 RMK A01 T03710183  RH  033%=      5-min Rain = 0
KES1 022301Z 14016KT 37/18 A2989 RMK A01 T03710181  RH  033%=      5-min Rain = 0
KES1 022302Z 14019KT 37/18 A2989 RMK A01 T03710179  RH  032%=      5-min Rain = 0
KES1 022303Z 15017G22KT 37/18 A2989 RMK A01 T03710179  RH  033%=      5-min Rain = 0
KES1 022304Z 15013KT 37/18 A2989 RMK A01 T03710180  RH  033%=      5-min Rain = 0
KES1 022305Z 14014KT 37/18 A2989 RMK A01 T03700179  RH  033%=      5-min Rain = 0
KES1 022306Z 15016KT 37/18 A2989 RMK A01 T03700179  RH  032%=      5-min Rain = 0
KES1 022307Z 15013KT 37/18 A2989 RMK A01 T03710178  RH  032%=      5-min Rain = 0
KES1 022308Z 16014KT 37/18 A2989 RMK A01 T03700179  RH  033%=      5-min Rain = 0
KES1 022309Z 17013KT 37/18 A2989 RMK A01 T03700181  RH  033%=      5-min Rain = 0
KES1 022310Z 17012G18KT 37/18 A2989 RMK A01 T03710181  RH  033%=      5-min Rain = 0
KES1 022311Z 16012KT 37/18 A2989 RMK A01 T03720179  RH  032%=      5-min Rain = 0
KES1 022312Z 15012G18KT 37/18 A2989 RMK A01 T03710181  RH  033%=      5-min Rain = 0
KES1 022313Z 15015G20KT 37/18 A2989 RMK A01 T03710181  RH  033%=      5-min Rain = 0
KES1 022314Z 13012KT 37/18 A2989 RMK A01 T03710181  RH  033%=      5-min Rain = 0
KES1 022315Z 15013KT 37/18 A2989 RMK A01 T03710180  RH  033%=      5-min Rain = 0
KES1 022316Z 13013G18KT 37/18 A2989 RMK A01 T03720179  RH  032%=      5-min Rain = 0
KES1 022317Z 15014KT 37/18 A2988 RMK A01 T03720177  RH  032%=      5-min Rain = 0
KES1 022318Z 15011G16KT 37/18 A2989 RMK A01 T03710178  RH  032%=      5-min Rain = 0
KES1 022319Z 15009KT 37/18 A2989 RMK A01 T03720179  RH  032%=      5-min Rain = 0
KES1 022320Z 16012KT 37/18 A2989 RMK A01 T03740180  RH  032%=      5-min Rain = 0
KES1 022321Z 17013G19KT 38/18 A2988 RMK A01 T03750177  RH  031%=      5-min Rain = 0
KES1 022322Z 17012G17KT 37/18 A2988 RMK A01 T03730175  RH  031%=      5-min Rain = 0
KES1 022323Z 15014KT 37/18 A2988 RMK A01 T03720175  RH  031%=      5-min Rain = 0
KES1 022324Z 14012KT 37/17 A2988 RMK A01 T03710174  RH  031%=      5-min Rain = 0
KES1 022325Z 14007KT 37/18 A2988 RMK A01 T03690175  RH  032%=      5-min Rain = 0
KES1 022326Z 13012KT 37/18 A2988 RMK A01 T03700175  RH  032%=      5-min Rain = 0
KES1 022327Z 14012KT 37/18 A2988 RMK A01 T03710176  RH  032%=      5-min Rain = 0
KES1 022328Z 15014KT 37/18 A2988 RMK A01 T03700178  RH  032%=      5-min Rain = 0
KES1 022329Z 15010KT 37/18 A2988 RMK A01 T03690179  RH  033%=      5-min Rain = 0
KES1 022330Z 14010KT 37/18 A2988 RMK A01 T03680181  RH  033%=      5-min Rain = 0
KES1 022331Z 14010KT 37/18 A2988 RMK A01 T03670180  RH  033%=      5-min Rain = 0
KES1 022332Z 13015G22KT 37/18 A2988 RMK A01 T03660179  RH  033%=      5-min Rain = 0
KES1 022333Z 15016KT 36/18 A2989 RMK A01 T03640178  RH  034%=      5-min Rain = 0
KES1 022334Z 15017KT 36/18 A2988 RMK A01 T03610176  RH  034%=      5-min Rain = 0
KES1 022335Z 14015KT 36/17 A2988 RMK A01 T03590174  RH  034%=      5-min Rain = 0
KES1 022336Z 14013G18KT 36/17 A2988 RMK A01 T03570174  RH  034%=      5-min Rain = 0
KES1 022337Z 15013KT 36/18 A2988 RMK A01 T03570175  RH  034%=      5-min Rain = 0
KES1 022338Z 15012KT 36/18 A2988 RMK A01 T03570176  RH  034%=      5-min Rain = 0
KES1 022339Z 14011KT 36/18 A2988 RMK A01 T03570176  RH  034%=      5-min Rain = 0
KES1 022340Z 15010G16KT 36/18 A2988 RMK A01 T03590176  RH  034%=      5-min Rain = 0
KES1 022341Z 16015KT 36/18 A2988 RMK A01 T03610176  RH  034%=      5-min Rain = 0
KES1 022342Z 15013KT 36/18 A2988 RMK A01 T03620175  RH  033%=      5-min Rain = 0
KES1 022343Z 15014KT 36/18 A2989 RMK A01 T03620176  RH  033%=      5-min Rain = 0
KES1 022344Z 15013KT 36/18 A2989 RMK A01 T03620177  RH  034%=      5-min Rain = 0
KES1 022345Z 15015G20KT 36/18 A2989 RMK A01 T03610179  RH  034%=      5-min Rain = 0
KES1 022346Z 14010KT 36/18 A2989 RMK A01 T03590180  RH  035%=      5-min Rain = 0
KES1 022347Z 13011KT 36/18 A2989 RMK A01 T03580180  RH  035%=      5-min Rain = 0
KES1 022348Z 14012G17KT 36/18 A2989 RMK A01 T03580181  RH  035%=      5-min Rain = 0
KES1 022349Z 14011G17KT 36/18 A2989 RMK A01 T03580182  RH  036%=      5-min Rain = 0
KES1 022350Z 15014KT 36/18 A2989 RMK A01 T03580181  RH  035%=      5-min Rain = 0
KES1 022351Z 15015KT 36/18 A2989 RMK A01 T03570180  RH  035%=      5-min Rain = 0
KES1 022352Z 15012KT 36/18 A2989 RMK A01 T03560181  RH  036%=      5-min Rain = 0
KES1 022353Z 14012G17KT 36/18 A2989 RMK A01 T03550180  RH  036%=      5-min Rain = 0
KES1 022354Z 15013G21KT 36/18 A2989 RMK A01 T03550181  RH  036%=      5-min Rain = 0
KES1 022355Z 15017G22KT 35/18 A2989 RMK A01 T03540179  RH  036%=      5-min Rain = 0
KES1 022356Z 14011KT 35/18 A2989 RMK A01 T03530179  RH  036%=      5-min Rain = 0
KES1 022357Z 14013KT 35/18 A2989 RMK A01 T03520179  RH  036%=      5-min Rain = 0
KES1 022358Z 14014KT 35/18 A2989 RMK A01 T03520180  RH  036%=      5-min Rain = 0
KES1 022359Z 14014KT 35/18 A2989 RMK A01 T03520180  RH  036%=      5-min Rain = 0
KES1 030000Z 14012G17KT 35/18 A2989 RMK A01 T03510180  RH  036%=      5-min Rain = 0
KES1 030001Z 14011KT 35/18 A2989 RMK A01 T03510180  RH  036%=      5-min Rain = 0
KES1 030002Z 14012KT 35/18 A2989 RMK A01 T03500180  RH  036%=      5-min Rain = 0
KES1 030003Z 14010G15KT 35/18 A2989 RMK A01 T03500179  RH  036%=      5-min Rain = 0
KES1 030004Z 14011KT 35/18 A2989 RMK A01 T03500179  RH  036%=      5-min Rain = 0
KES1 030005Z 14012KT 35/18 A299 RMK A01 T03500177  RH  036%=      5-min Rain = 0
KES1 030006Z 14015KT 35/18 A299 RMK A01 T03500177  RH  036%=      5-min Rain = 0
KES1 030007Z 14011KT 35/18 A299 RMK A01 T03500177  RH  036%=      5-min Rain = 0
KES1 030008Z 15012KT 35/18 A299 RMK A01 T03500178  RH  036%=      5-min Rain = 0
KES1 030009Z 15012KT 35/18 A299 RMK A01 T03490179  RH  036%=      5-min Rain = 0
KES1 030010Z 14011KT 35/18 A299 RMK A01 T03490179  RH  037%=      5-min Rain = 0
KES1 030011Z 14013KT 35/18 A299 RMK A01 T03480179  RH  037%=      5-min Rain = 0
KES1 030012Z 15011KT 35/18 A2989 RMK A01 T03490180  RH  037%=      5-min Rain = 0
KES1 030013Z 15011KT 35/18 A2989 RMK A01 T03480180  RH  037%=      5-min Rain = 0
KES1 030014Z 14014KT 35/18 A2989 RMK A01 T03480181  RH  037%=      5-min Rain = 0
KES1 030015Z 14011KT 35/18 A2989 RMK A01 T03470182  RH  038%=      5-min Rain = 0
KES1 030016Z 14011KT 35/18 A2989 RMK A01 T03470183  RH  038%=      5-min Rain = 0
KES1 030017Z 14012KT 35/19 A299 RMK A01 T03480186  RH  039%=      5-min Rain = 0
KES1 030018Z 15013KT 35/19 A299 RMK A01 T03470188  RH  039%=      5-min Rain = 0
KES1 030019Z 14013KT 35/19 A299 RMK A01 T03470190  RH  040%=      5-min Rain = 0
KES1 030020Z 14011G18KT 35/19 A299 RMK A01 T03470191  RH  040%=      5-min Rain = 0
KES1 030021Z 14013KT 35/19 A299 RMK A01 T03470193  RH  040%=      5-min Rain = 0
KES1 030022Z 14014KT 35/19 A299 RMK A01 T03460194  RH  041%=      5-min Rain = 0
KES1 030023Z 14012KT 35/19 A299 RMK A01 T03460194  RH  041%=      5-min Rain = 0
KES1 030024Z 14011G16KT 35/19 A299 RMK A01 T03460194  RH  041%=      5-min Rain = 0
KES1 030025Z 14009KT 35/20 A2991 RMK A01 T03450195  RH  041%=      5-min Rain = 0
KES1 030026Z 14009KT 35/20 A2991 RMK A01 T03450195  RH  041%=      5-min Rain = 0
KES1 030027Z 14011KT 35/20 A2991 RMK A01 T03450195  RH  041%=      5-min Rain = 0
KES1 030028Z 14008KT 35/20 A2991 RMK A01 T03450195  RH  041%=      5-min Rain = 0
KES1 030029Z 13009KT 35/20 A2991 RMK A01 T03450195  RH  042%=      5-min Rain = 0
KES1 030030Z 14011KT 34/20 A2991 RMK A01 T03440195  RH  041%=      5-min Rain = 0
KES1 030031Z 15009KT 34/19 A2991 RMK A01 T03440194  RH  041%=      5-min Rain = 0
KES1 030032Z 14012KT 34/19 A2991 RMK A01 T03440193  RH  041%=      5-min Rain = 0
KES1 030033Z 14010KT 34/19 A2991 RMK A01 T03440193  RH  041%=      5-min Rain = 0
KES1 030034Z 14010KT 34/19 A2991 RMK A01 T03430192  RH  041%=      5-min Rain = 0
KES1 030035Z 14009KT 34/19 A2991 RMK A01 T03430193  RH  041%=      5-min Rain = 0
KES1 030036Z 15010KT 34/19 A2991 RMK A01 T03430192  RH  041%=      5-min Rain = 0
KES1 030037Z 14009KT 34/19 A2991 RMK A01 T03430193  RH  041%=      5-min Rain = 0
KES1 030038Z 14009KT 34/19 A2991 RMK A01 T03420192  RH  041%=      5-min Rain = 0
KES1 030039Z 14010KT 34/19 A2991 RMK A01 T03430193  RH  041%=      5-min Rain = 0
KES1 030040Z 14011KT 34/19 A2991 RMK A01 T03420193  RH  041%=      5-min Rain = 0
KES1 030041Z 14009KT 34/19 A2991 RMK A01 T03420193  RH  042%=      5-min Rain = 0
KES1 030042Z 14008KT 34/19 A2991 RMK A01 T03420193  RH  042%=      5-min Rain = 0
KES1 030043Z 14010G15KT 34/19 A2991 RMK A01 T03420194  RH  042%=      5-min Rain = 0
KES1 030044Z 14011G16KT 34/19 A2991 RMK A01 T03410194  RH  042%=      5-min Rain = 0
KES1 030045Z 14013KT 34/19 A2991 RMK A01 T03410194  RH  042%=      5-min Rain = 0
KES1 030046Z 14010KT 34/19 A2991 RMK A01 T03410194  RH  042%=      5-min Rain = 0
KES1 030047Z 14012KT 34/19 A2991 RMK A01 T03410193  RH  042%=      5-min Rain = 0
KES1 030048Z 14010KT 34/19 A2991 RMK A01 T03410193  RH  042%=      5-min Rain = 0
KES1 030049Z 14011KT 34/19 A2991 RMK A01 T03400193  RH  042%=      5-min Rain = 0
KES1 030050Z 14009KT 34/19 A2991 RMK A01 T03400193  RH  042%=      5-min Rain = 0
KES1 030051Z 13009KT 34/19 A2991 RMK A01 T03400193  RH  042%=      5-min Rain = 0
KES1 030052Z 14009KT 34/19 A2991 RMK A01 T03390193  RH  042%=      5-min Rain = 0
KES1 030053Z 13008KT 34/19 A2991 RMK A01 T03390192  RH  042%=      5-min Rain = 0
KES1 030054Z 14008KT 34/19 A2991 RMK A01 T03380192  RH  042%=      5-min Rain = 0
KES1 030055Z 13007KT 34/19 A2991 RMK A01 T03380192  RH  042%=      5-min Rain = 0
KES1 030056Z 14008KT 34/19 A2991 RMK A01 T03380191  RH  042%=      5-min Rain = 0
KES1 030057Z 13007KT 34/19 A2991 RMK A01 T03380191  RH  042%=      5-min Rain = 0
KES1 030058Z 14008KT 34/19 A2992 RMK A01 T03370191  RH  042%=      5-min Rain = 0
KES1 030059Z 13010KT 34/19 A2992 RMK A01 T03370190  RH  042%=      5-min Rain = 0
KES1 030100Z 13009KT 34/19 A2992 RMK A01 T03370190  RH  042%=      5-min Rain = 0
KES1 030101Z 13008KT 34/19 A2992 RMK A01 T03370189  RH  042%=      5-min Rain = 0
KES1 030102Z 14008KT 34/19 A2992 RMK A01 T03370189  RH  042%=      5-min Rain = 0
KES1 030103Z 13012KT 34/19 A2992 RMK A01 T03360187  RH  041%=      5-min Rain = 0
KES1 030104Z 13010KT 34/19 A2992 RMK A01 T03360185  RH  041%=      5-min Rain = 0
KES1 030105Z 14010KT 34/19 A2992 RMK A01 T03360185  RH  041%=      5-min Rain = 0
KES1 030106Z 13010KT 34/18 A2992 RMK A01 T03360184  RH  041%=      5-min Rain = 0
KES1 030107Z 13009KT 34/18 A2992 RMK A01 T03360183  RH  040%=      5-min Rain = 0
KES1 030108Z 13011KT 34/18 A2992 RMK A01 T03360182  RH  040%=      5-min Rain = 0
KES1 030109Z 12008KT 34/18 A2992 RMK A01 T03360180  RH  040%=      5-min Rain = 0
KES1 030110Z 13008KT 34/18 A2992 RMK A01 T03360181  RH  040%=      5-min Rain = 0
KES1 030111Z 12010KT 34/18 A2992 RMK A01 T03360181  RH  040%=      5-min Rain = 0
KES1 030112Z 13009KT 34/18 A2992 RMK A01 T03360180  RH  040%=      5-min Rain = 0
KES1 030113Z 12009KT 34/18 A2992 RMK A01 T03360180  RH  040%=      5-min Rain = 0
KES1 030114Z 12007KT 34/18 A2992 RMK A01 T03350180  RH  040%=      5-min Rain = 0
KES1 030115Z 12008KT 33/18 A2992 RMK A01 T03340180  RH  040%=      5-min Rain = 0
KES1 030116Z 13007KT 33/18 A2992 RMK A01 T03340179  RH  040%=      5-min Rain = 0
KES1 030117Z 12010KT 33/18 A2993 RMK A01 T03340179  RH  040%=      5-min Rain = 0
KES1 030118Z 13008KT 33/18 A2993 RMK A01 T03330178  RH  040%=      5-min Rain = 0
KES1 030119Z 13009KT 33/18 A2993 RMK A01 T03330177  RH  040%=      5-min Rain = 0
KES1 030120Z 13008KT 33/18 A2993 RMK A01 T03330177  RH  039%=      5-min Rain = 0
KES1 030121Z 13009KT 33/18 A2993 RMK A01 T03330176  RH  039%=      5-min Rain = 0
KES1 030122Z 13008KT 33/18 A2993 RMK A01 T03330176  RH  039%=      5-min Rain = 0
KES1 030123Z 13008KT 33/18 A2993 RMK A01 T03330176  RH  039%=      5-min Rain = 0
KES1 030124Z 12008KT 33/18 A2993 RMK A01 T03330175  RH  039%=      5-min Rain = 0
KES1 030125Z 12008KT 33/18 A2993 RMK A01 T03320175  RH  039%=      5-min Rain = 0
KES1 030126Z 12006KT 33/18 A2993 RMK A01 T03320175  RH  039%=      5-min Rain = 0
KES1 030127Z 12007KT 33/18 A2993 RMK A01 T03320175  RH  039%=      5-min Rain = 0
KES1 030128Z 11006KT 33/18 A2993 RMK A01 T03310175  RH  039%=      5-min Rain = 0
KES1 030129Z 12007KT 33/18 A2993 RMK A01 T03310175  RH  040%=      5-min Rain = 0
KES1 030130Z 12007KT 33/18 A2993 RMK A01 T03310175  RH  040%=      5-min Rain = 0
KES1 030131Z 11006KT 33/18 A2993 RMK A01 T03310176  RH  040%=      5-min Rain = 0
KES1 030132Z 11008KT 33/18 A2993 RMK A01 T03300175  RH  040%=      5-min Rain = 0
KES1 030133Z 11007KT 33/18 A2993 RMK A01 T03300175  RH  040%=      5-min Rain = 0
KES1 030134Z 11006KT 33/18 A2993 RMK A01 T03300175  RH  040%=      5-min Rain = 0
KES1 030135Z 12006KT 33/18 A2993 RMK A01 T03290175  RH  040%=      5-min Rain = 0
KES1 030136Z 11008KT 33/18 A2993 RMK A01 T03300176  RH  040%=      5-min Rain = 0
KES1 030137Z 11008KT 33/18 A2993 RMK A01 T03300176  RH  040%=      5-min Rain = 0
KES1 030138Z 11008KT 33/18 A2993 RMK A01 T03290176  RH  040%=      5-min Rain = 0
KES1 030139Z 11008KT 33/18 A2993 RMK A01 T03290176  RH  040%=      5-min Rain = 0
KES1 030140Z 11008KT 33/18 A2993 RMK A01 T03290177  RH  040%=      5-min Rain = 0
KES1 030141Z 11009KT 33/18 A2993 RMK A01 T03290177  RH  040%=      5-min Rain = 0
KES1 030142Z 11008KT 33/18 A2993 RMK A01 T03290178  RH  040%=      5-min Rain = 0
KES1 030143Z 12009KT 33/18 A2993 RMK A01 T03290178  RH  041%=      5-min Rain = 0
KES1 030144Z 11008KT 33/18 A2993 RMK A01 T03290178  RH  041%=      5-min Rain = 0
KES1 030145Z 11007KT 33/18 A2993 RMK A01 T03290179  RH  041%=      5-min Rain = 0
KES1 030146Z 11009KT 33/18 A2993 RMK A01 T03290179  RH  041%=      5-min Rain = 0
KES1 030147Z 11007KT 33/18 A2993 RMK A01 T03290179  RH  041%=      5-min Rain = 0
KES1 030148Z 12007KT 33/18 A2993 RMK A01 T03290179  RH  041%=      5-min Rain = 0
KES1 030149Z 12006KT 33/18 A2993 RMK A01 T03290180  RH  041%=      5-min Rain = 0
KES1 030150Z 12006KT 33/18 A2993 RMK A01 T03280180  RH  041%=      5-min Rain = 0
KES1 030151Z 12007KT 33/18 A2994 RMK A01 T03270180  RH  042%=      5-min Rain = 0
KES1 030152Z 12008KT 33/18 A2994 RMK A01 T03270180  RH  042%=      5-min Rain = 0
KES1 030153Z 12007KT 33/18 A2994 RMK A01 T03270180  RH  042%=      5-min Rain = 0
KES1 030154Z 13007KT 33/18 A2994 RMK A01 T03270181  RH  042%=      5-min Rain = 0
KES1 030155Z 13007KT 33/18 A2994 RMK A01 T03270181  RH  042%=      5-min Rain = 0
KES1 030156Z 12007KT 33/18 A2994 RMK A01 T03270181  RH  042%=      5-min Rain = 0
KES1 030157Z 12006KT 33/18 A2994 RMK A01 T03270182  RH  042%=      5-min Rain = 0
KES1 030158Z 13007KT 33/18 A2994 RMK A01 T03260182  RH  042%=      5-min Rain = 0
KES1 030159Z 13007KT 33/18 A2994 RMK A01 T03260182  RH  042%=      5-min Rain = 0
KES1 030200Z 14007KT 33/18 A2995 RMK A01 T03270182  RH  042%=      5-min Rain = 0
KES1 030201Z 14006KT 33/18 A2995 RMK A01 T03260183  RH  043%=      5-min Rain = 0
KES1 030202Z 15005KT 33/18 A2995 RMK A01 T03260183  RH  043%=      5-min Rain = 0
KES1 030203Z 16005KT 33/18 A2995 RMK A01 T03260183  RH  043%=      5-min Rain = 0
KES1 030204Z 19005KT 33/18 A2995 RMK A01 T03260183  RH  043%=      5-min Rain = 0
KES1 030205Z 17005KT 33/18 A2995 RMK A01 T03250183  RH  043%=      5-min Rain = 0
KES1 030206Z 17005KT 32/18 A2995 RMK A01 T03240183  RH  043%=      5-min Rain = 0
KES1 030207Z 16005KT 32/18 A2995 RMK A01 T03230183  RH  043%=      5-min Rain = 0
KES1 030208Z 16004KT 32/18 A2995 RMK A01 T03220183  RH  044%=      5-min Rain = 0
KES1 030209Z 16005KT 32/18 A2995 RMK A01 T03220183  RH  044%=      5-min Rain = 0
KES1 030210Z 16005KT 32/18 A2995 RMK A01 T03220184  RH  044%=      5-min Rain = 0
KES1 030211Z 17005KT 32/18 A2995 RMK A01 T03210184  RH  044%=      5-min Rain = 0
KES1 030212Z 16006KT 32/18 A2995 RMK A01 T03200184  RH  044%=      5-min Rain = 0
KES1 030213Z 16005KT 32/18 A2995 RMK A01 T03200184  RH  044%=      5-min Rain = 0
KES1 030214Z 16005KT 32/19 A2995 RMK A01 T03210185  RH  044%=      5-min Rain = 0
KES1 030215Z 16006KT 32/19 A2995 RMK A01 T03200185  RH  045%=      5-min Rain = 0
KES1 030216Z 17005KT 32/19 A2995 RMK A01 T03200185  RH  045%=      5-min Rain = 0
KES1 030217Z 16006KT 32/19 A2995 RMK A01 T03200185  RH  045%=      5-min Rain = 0
KES1 030218Z 17006KT 32/19 A2995 RMK A01 T03190185  RH  045%=      5-min Rain = 0
KES1 030219Z 17005KT 32/19 A2995 RMK A01 T03200186  RH  045%=      5-min Rain = 0
KES1 030220Z 16006KT 32/19 A2995 RMK A01 T03190186  RH  045%=      5-min Rain = 0
KES1 030221Z 16004KT 32/19 A2995 RMK A01 T03190186  RH  045%=      5-min Rain = 0
KES1 030222Z 16005KT 32/19 A2995 RMK A01 T03180186  RH  045%=      5-min Rain = 0
KES1 030223Z 16005KT 32/19 A2995 RMK A01 T03180186  RH  046%=      5-min Rain = 0
KES1 030224Z 16004KT 32/19 A2995 RMK A01 T03180186  RH  046%=      5-min Rain = 0
KES1 030225Z 17004KT 32/19 A2995 RMK A01 T03180186  RH  046%=      5-min Rain = 0
KES1 030226Z 16005KT 32/19 A2995 RMK A01 T03180187  RH  046%=      5-min Rain = 0
KES1 030227Z 16004KT 32/19 A2995 RMK A01 T03170186  RH  046%=      5-min Rain = 0
KES1 030228Z 16005KT 32/19 A2995 RMK A01 T03170187  RH  046%=      5-min Rain = 0
KES1 030229Z 16004KT 32/19 A2995 RMK A01 T03170187  RH  046%=      5-min Rain = 0
KES1 030230Z 15003KT 32/19 A2996 RMK A01 T03170187  RH  046%=      5-min Rain = 0
KES1 030231Z 14003KT 32/19 A2996 RMK A01 T03160187  RH  046%=      5-min Rain = 0
KES1 030232Z 13003KT 32/19 A2996 RMK A01 T03150187  RH  047%=      5-min Rain = 0
KES1 030233Z 13003KT 32/19 A2996 RMK A01 T03150188  RH  047%=      5-min Rain = 0
KES1 030234Z 13003KT 31/19 A2996 RMK A01 T03140188  RH  047%=      5-min Rain = 0
KES1 030235Z 13003KT 31/19 A2996 RMK A01 T03130188  RH  047%=      5-min Rain = 0
KES1 030236Z 13003KT 31/19 A2997 RMK A01 T03120188  RH  048%=      5-min Rain = 0
KES1 030237Z 12003KT 31/19 A2997 RMK A01 T03120188  RH  048%=      5-min Rain = 0
KES1 030238Z 11003KT 31/19 A2997 RMK A01 T03110188  RH  048%=      5-min Rain = 0
KES1 030239Z 10003KT 31/19 A2997 RMK A01 T03110188  RH  048%=      5-min Rain = 0
KES1 030240Z 10003KT 31/19 A2997 RMK A01 T03110188  RH  048%=      5-min Rain = 0
KES1 030241Z 09003KT 31/19 A2997 RMK A01 T03110188  RH  048%=      5-min Rain = 0
KES1 030242Z 09004KT 31/19 A2997 RMK A01 T03110188  RH  048%=      5-min Rain = 0
KES1 030243Z 09004KT 31/19 A2997 RMK A01 T03110189  RH  048%=      5-min Rain = 0
KES1 030244Z 08004KT 31/19 A2998 RMK A01 T03110189  RH  048%=      5-min Rain = 0
KES1 030245Z 08005KT 31/19 A2998 RMK A01 T03110189  RH  048%=      5-min Rain = 0
KES1 030246Z 09005KT 31/19 A2998 RMK A01 T03110189  RH  048%=      5-min Rain = 0
KES1 030247Z 09005KT 31/19 A2998 RMK A01 T03100190  RH  049%=      5-min Rain = 0
KES1 030248Z 09005KT 31/19 A2998 RMK A01 T03100190  RH  049%=      5-min Rain = 0
KES1 030249Z 08005KT 31/19 A2998 RMK A01 T03100189  RH  049%=      5-min Rain = 0
KES1 030250Z 08005KT 31/19 A2998 RMK A01 T03100190  RH  049%=      5-min Rain = 0
KES1 030251Z 09006KT 31/19 A2998 RMK A01 T03100190  RH  049%=      5-min Rain = 0
KES1 030252Z 09006KT 31/19 A2998 RMK A01 T03100190  RH  049%=      5-min Rain = 0
KES1 030253Z 09005KT 31/19 A2998 RMK A01 T03100190  RH  049%=      5-min Rain = 0
KES1 030254Z 10005KT 31/19 A2998 RMK A01 T03100191  RH  049%=      5-min Rain = 0
KES1 030255Z 10005KT 31/19 A2998 RMK A01 T03100191  RH  049%=      5-min Rain = 0
KES1 030256Z 10004KT 31/19 A2998 RMK A01 T03090191  RH  049%=      5-min Rain = 0
KES1 030257Z 10004KT 31/19 A2998 RMK A01 T03090191  RH  049%=      5-min Rain = 0
KES1 030258Z 10004KT 31/19 A2998 RMK A01 T03090192  RH  049%=      5-min Rain = 0
KES1 030259Z 11003KT 31/19 A2998 RMK A01 T03090191  RH  050%=      5-min Rain = 0
KES1 030300Z 11003KT 31/19 A2998 RMK A01 T03090191  RH  050%=      5-min Rain = 0
KES1 030301Z 12003KT 31/19 A2998 RMK A01 T03090192  RH  050%=      5-min Rain = 0
KES1 030302Z 12003KT 31/19 A2998 RMK A01 T03090192  RH  050%=      5-min Rain = 0
KES1 030303Z 12003KT 31/19 A2998 RMK A01 T03090192  RH  050%=      5-min Rain = 0
KES1 030304Z 12004KT 31/19 A2998 RMK A01 T03090192  RH  050%=      5-min Rain = 0
KES1 030305Z 11004KT 31/19 A2998 RMK A01 T03090192  RH  050%=      5-min Rain = 0
KES1 030306Z 11004KT 31/19 A2998 RMK A01 T03090192  RH  050%=      5-min Rain = 0
KES1 030307Z 12005KT 31/19 A2998 RMK A01 T03100193  RH  050%=      5-min Rain = 0
KES1 030308Z 12004KT 31/19 A2998 RMK A01 T03100193  RH  050%=      5-min Rain = 0
KES1 030309Z 12004KT 31/19 A2998 RMK A01 T03110193  RH  050%=      5-min Rain = 0
KES1 030310Z 12004KT 31/19 A2998 RMK A01 T03110194  RH  050%=      5-min Rain = 0
KES1 030311Z 12005KT 31/20 A2998 RMK A01 T03120195  RH  050%=      5-min Rain = 0
KES1 030312Z 13005KT 31/19 A2998 RMK A01 T03110194  RH  050%=      5-min Rain = 0
KES1 030313Z 12004KT 31/20 A2998 RMK A01 T03120195  RH  050%=      5-min Rain = 0
KES1 030314Z 12004KT 31/20 A2999 RMK A01 T03120195  RH  050%=      5-min Rain = 0
KES1 030315Z 12004KT 31/20 A2999 RMK A01 T03120195  RH  050%=      5-min Rain = 0
KES1 030316Z 12005KT 31/20 A2999 RMK A01 T03110196  RH  050%=      5-min Rain = 0
KES1 030317Z 12005KT 31/20 A2999 RMK A01 T03110196  RH  050%=      5-min Rain = 0
KES1 030318Z 12006KT 31/20 A2999 RMK A01 T03110196  RH  050%=      5-min Rain = 0
KES1 030319Z 13007KT 31/20 A2999 RMK A01 T03120196  RH  050%=      5-min Rain = 0
KES1 030320Z 13006KT 31/20 A2999 RMK A01 T03120196  RH  050%=      5-min Rain = 0
KES1 030321Z 13007KT 31/20 A2999 RMK A01 T03130196  RH  050%=      5-min Rain = 0
KES1 030322Z 13006KT 31/20 A2999 RMK A01 T03130196  RH  050%=      5-min Rain = 0
KES1 030323Z 13007KT 31/20 A2999 RMK A01 T03130196  RH  050%=      5-min Rain = 0
KES1 030324Z 13007KT 31/20 A2999 RMK A01 T03130196  RH  050%=      5-min Rain = 0
KES1 030325Z 13007KT 31/20 A2999 RMK A01 T03130196  RH  050%=      5-min Rain = 0
KES1 030326Z 13006KT 31/20 A2999 RMK A01 T03140196  RH  050%=      5-min Rain = 0
KES1 030327Z 13006KT 31/20 A2999 RMK A01 T03140197  RH  050%=      5-min Rain = 0
KES1 030328Z 13006KT 31/20 A2999 RMK A01 T03140196  RH  050%=      5-min Rain = 0
KES1 030329Z 13006KT 31/20 A2999 RMK A01 T03130196  RH  050%=      5-min Rain = 0
KES1 030330Z 13006KT 31/20 A2999 RMK A01 T03130196  RH  050%=      5-min Rain = 0
KES1 030331Z 13006KT 31/20 A2999 RMK A01 T03130196  RH  050%=      5-min Rain = 0
KES1 030332Z 13006KT 31/20 A2999 RMK A01 T03130196  RH  050%=      5-min Rain = 0
KES1 030333Z 14006KT 31/20 A2999 RMK A01 T03130196  RH  050%=      5-min Rain = 0
KES1 030334Z 13005KT 31/20 A2999 RMK A01 T03130196  RH  050%=      5-min Rain = 0
KES1 030335Z 14004KT 31/20 A2999 RMK A01 T03130196  RH  050%=      5-min Rain = 0
KES1 030336Z 14004KT 31/20 A2999 RMK A01 T03130196  RH  050%=      5-min Rain = 0
KES1 030337Z 15004KT 31/20 A2999 RMK A01 T03130196  RH  050%=      5-min Rain = 0
KES1 030338Z 16003KT 31/20 A2999 RMK A01 T03120196  RH  050%=      5-min Rain = 0
KES1 030339Z 17003KT 31/20 A2999 RMK A01 T03120195  RH  050%=      5-min Rain = 0
KES1 030340Z 21003KT 31/20 A2999 RMK A01 T03120195  RH  050%=      5-min Rain = 0
KES1 030341Z 23004KT 31/20 A30 RMK A01 T03120196  RH  050%=      5-min Rain = 0
KES1 030342Z 25006KT 31/20 A30 RMK A01 T03120197  RH  050%=      5-min Rain = 0
KES1 030343Z 25005KT 31/20 A30 RMK A01 T03110196  RH  050%=      5-min Rain = 0
KES1 030344Z 25006KT 31/20 A30 RMK A01 T03100195  RH  050%=      5-min Rain = 0
KES1 030345Z 25006KT 31/19 A30 RMK A01 T03090192  RH  050%=      5-min Rain = 0
KES1 030346Z 25005KT 31/19 A30 RMK A01 T03080190  RH  049%=      5-min Rain = 0
KES1 030347Z 26004KT 31/19 A30 RMK A01 T03070188  RH  049%=      5-min Rain = 0
KES1 030348Z 25005KT 31/19 A3001 RMK A01 T03070188  RH  049%=      5-min Rain = 0
KES1 030349Z 24005KT 31/19 A3001 RMK A01 T03070187  RH  049%=      5-min Rain = 0
KES1 030350Z 23007KT 31/18 A3001 RMK A01 T03060184  RH  048%=      5-min Rain = 0
KES1 030351Z 24008KT 31/18 A3001 RMK A01 T03060183  RH  048%=      5-min Rain = 0
KES1 030352Z 25010KT 31/18 A3001 RMK A01 T03060182  RH  047%=      5-min Rain = 0
KES1 030353Z 26008KT 31/18 A3001 RMK A01 T03060182  RH  047%=      5-min Rain = 0
KES1 030354Z 25009KT 31/18 A3001 RMK A01 T03060182  RH  048%=      5-min Rain = 0
KES1 030355Z 25007KT 31/18 A3001 RMK A01 T03060183  RH  048%=      5-min Rain = 0
KES1 030356Z 26005KT 31/18 A3001 RMK A01 T03050183  RH  048%=      5-min Rain = 0
KES1 030357Z 25006KT 30/18 A3001 RMK A01 T03040183  RH  048%=      5-min Rain = 0
KES1 030358Z 24005KT 30/18 A3001 RMK A01 T03040184  RH  049%=      5-min Rain = 0
KES1 030359Z 27006KT 30/19 A3001 RMK A01 T03030185  RH  049%=      5-min Rain = 0
KES1 030400Z 27007KT 30/19 A3001 RMK A01 T03020185  RH  050%=      5-min Rain = 0
KES1 030401Z 30007KT 30/19 A3001 RMK A01 T03010185  RH  050%=      5-min Rain = 0
KES1 030402Z 29006KT 30/19 A3001 RMK A01 T03000186  RH  050%=      5-min Rain = 0
KES1 030403Z 29005KT 30/19 A3001 RMK A01 T02990186  RH  051%=      5-min Rain = 0
KES1 030404Z 31004KT 30/19 A3001 RMK A01 T02980185  RH  051%=      5-min Rain = 0
KES1 030405Z 31005KT 30/19 A3001 RMK A01 T02980186  RH  051%=      5-min Rain = 0
KES1 030406Z 30006KT 30/19 A3001 RMK A01 T02970186  RH  051%=      5-min Rain = 0
KES1 030407Z 30007KT 30/19 A3001 RMK A01 T02970186  RH  051%=      5-min Rain = 0
KES1 030408Z 29008KT 30/19 A3001 RMK A01 T02950185  RH  051%=      5-min Rain = 0
KES1 030409Z 30007KT 29/18 A3001 RMK A01 T02930184  RH  052%=      5-min Rain = 0
KES1 030410Z 30008KT 29/18 A3001 RMK A01 T02920184  RH  052%=      5-min Rain = 0
KES1 030411Z 29006KT 29/19 A3001 RMK A01 T02910185  RH  053%=      5-min Rain = 0
KES1 030412Z 29006KT 29/18 A3001 RMK A01 T02900184  RH  053%=      5-min Rain = 0
KES1 030413Z 29006KT 29/18 A3001 RMK A01 T02890184  RH  053%=      5-min Rain = 0
KES1 030414Z 29006KT 29/18 A3001 RMK A01 T02880184  RH  053%=      5-min Rain = 0
KES1 030415Z 28005KT 29/18 A3001 RMK A01 T02880184  RH  053%=      5-min Rain = 0
KES1 030416Z 27004KT 29/18 A3001 RMK A01 T02870184  RH  053%=      5-min Rain = 0
KES1 030417Z 28005KT 29/18 A3001 RMK A01 T02870184  RH  053%=      5-min Rain = 0
KES1 030418Z 28006KT 29/18 A3001 RMK A01 T02870184  RH  054%=      5-min Rain = 0
KES1 030419Z 28005KT 29/18 A3001 RMK A01 T02860183  RH  054%=      5-min Rain = 0
KES1 030420Z 29005KT 29/18 A3001 RMK A01 T02860183  RH  054%=      5-min Rain = 0
KES1 030421Z 29005KT 29/18 A3001 RMK A01 T02860184  RH  054%=      5-min Rain = 0
KES1 030422Z 29006KT 29/18 A3001 RMK A01 T02850183  RH  054%=      5-min Rain = 0
KES1 030423Z 30006KT 29/18 A3001 RMK A01 T02850183  RH  054%=      5-min Rain = 0
KES1 030424Z 29005KT 29/18 A3001 RMK A01 T02850183  RH  054%=      5-min Rain = 0
KES1 030425Z 29006KT 28/18 A3001 RMK A01 T02840183  RH  054%=      5-min Rain = 0
KES1 030426Z 29006KT 28/18 A3001 RMK A01 T02840183  RH  054%=      5-min Rain = 0
KES1 030427Z 28005KT 28/18 A3001 RMK A01 T02840183  RH  054%=      5-min Rain = 0
KES1 030428Z 29005KT 28/18 A3001 RMK A01 T02830183  RH  055%=      5-min Rain = 0
KES1 030429Z 28005KT 28/18 A3001 RMK A01 T02820183  RH  055%=      5-min Rain = 0
KES1 030430Z 29005KT 28/18 A3001 RMK A01 T02820183  RH  055%=      5-min Rain = 0
KES1 030431Z 29004KT 28/18 A3001 RMK A01 T02820183  RH  055%=      5-min Rain = 0
KES1 030432Z 30005KT 28/18 A3001 RMK A01 T02820184  RH  055%=      5-min Rain = 0
KES1 030433Z 30004KT 28/18 A3001 RMK A01 T02810183  RH  055%=      5-min Rain = 0
KES1 030434Z 30005KT 28/18 A3001 RMK A01 T02820184  RH  055%=      5-min Rain = 0
KES1 030435Z 30006KT 28/18 A3001 RMK A01 T02810184  RH  055%=      5-min Rain = 0
KES1 030436Z 29005KT 28/18 A3001 RMK A01 T02820184  RH  056%=      5-min Rain = 0
KES1 030437Z 29004KT 28/18 A3001 RMK A01 T02810184  RH  056%=      5-min Rain = 0
KES1 030438Z 29005KT 28/18 A3001 RMK A01 T02810184  RH  056%=      5-min Rain = 0
KES1 030439Z 28004KT 28/19 A3001 RMK A01 T02810185  RH  056%=      5-min Rain = 0
KES1 030440Z 28004KT 28/19 A3001 RMK A01 T02800185  RH  056%=      5-min Rain = 0
KES1 030441Z 27004KT 28/19 A3001 RMK A01 T02800185  RH  056%=      5-min Rain = 0
KES1 030442Z 27004KT 28/18 A3001 RMK A01 T02800184  RH  056%=      5-min Rain = 0
KES1 030443Z 27004KT 28/19 A3001 RMK A01 T02800185  RH  056%=      5-min Rain = 0
KES1 030444Z 28004KT 28/19 A3001 RMK A01 T02800185  RH  056%=      5-min Rain = 0
KES1 030445Z 29004KT 28/19 A3001 RMK A01 T02800185  RH  056%=      5-min Rain = 0
KES1 030446Z 28005KT 28/19 A3001 RMK A01 T02790185  RH  056%=      5-min Rain = 0
KES1 030447Z 29005KT 28/19 A3001 RMK A01 T02790185  RH  056%=      5-min Rain = 0
KES1 030448Z 28005KT 28/19 A3001 RMK A01 T02790185  RH  056%=      5-min Rain = 0
KES1 030449Z 28005KT 28/19 A3001 RMK A01 T02790185  RH  056%=      5-min Rain = 0
KES1 030450Z 28005KT 28/19 A3001 RMK A01 T02790185  RH  056%=      5-min Rain = 0
KES1 030451Z 28005KT 28/19 A3001 RMK A01 T02790185  RH  056%=      5-min Rain = 0
KES1 030452Z 28004KT 28/19 A3001 RMK A01 T02790185  RH  056%=      5-min Rain = 0
KES1 030453Z 30003KT 28/19 A3001 RMK A01 T02790185  RH  056%=      5-min Rain = 0
KES1 030454Z 30003KT 28/19 A3001 RMK A01 T02790185  RH  056%=      5-min Rain = 0
KES1 030455Z 31004KT 28/19 A3001 RMK A01 T02790185  RH  056%=      5-min Rain = 0
KES1 030456Z 30004KT 28/19 A3001 RMK A01 T02800185  RH  056%=      5-min Rain = 0
KES1 030457Z 32006KT 28/18 A3001 RMK A01 T02800184  RH  056%=      5-min Rain = 0
KES1 030458Z 31004KT 28/18 A3001 RMK A01 T02800184  RH  056%=      5-min Rain = 0
KES1 030459Z 30003KT 28/18 A3001 RMK A01 T02800184  RH  056%=      5-min Rain = 0

Page generated in 0.0744 seconds.